Wetterdaten: Montag, 29.03.2021
Datum Zeit Temp. Aussen Temp. o. S. Temp +5cm Feuchte Auss Luftdruck Regen Sonnenschein Regendauer Solar Windben Empfang
29.03.2021 00:00 9,9 C 8,3 C 6,1 C 76 % 1028,1 hPa 0,0 l/m 0 min 0 min 0 W/m 0,0 km/h (0 Bft) 97,87 %
29.03.2021 00:02 9,8 C 8,3 C 6,1 C 76 % 1028,2 hPa 0,0 l/m 0 min 0 min 0 W/m 3,2 km/h (1 Bft) 100,00 %
29.03.2021 00:04 9,8 C 8,3 C 6,1 C 77 % 1028,2 hPa 0,0 l/m 0 min 0 min 0 W/m 3,2 km/h (1 Bft) 100,00 %
29.03.2021 00:08 9,7 C 8,3 C 6,1 C 77 % 1028,2 hPa 0,0 l/m 0 min 0 min 0 W/m 3,2 km/h (1 Bft) 100,00 %
29.03.2021 00:10 9,6 C 8,3 C 5,6 C 77 % 1028,2 hPa 0,0 l/m 0 min 0 min 0 W/m 3,2 km/h (1 Bft) 97,87 %
29.03.2021 00:12 9,6 C 7,8 C 5,6 C 77 % 1028,2 hPa 0,0 l/m 0 min 0 min 0 W/m 0,0 km/h (0 Bft) 97,87 %
29.03.2021 00:14 9,5 C 7,8 C 5,6 C 77 % 1028,1 hPa 0,0 l/m 0 min 0 min 0 W/m 3,2 km/h (1 Bft) 100,00 %
29.03.2021 00:16 9,5 C 7,8 C 5,6 C 77 % 1028,2 hPa 0,0 l/m 0 min 0 min 0 W/m 3,2 km/h (1 Bft) 100,00 %
29.03.2021 00:18 9,5 C 7,8 C 5,6 C 78 % 1028,2 hPa 0,0 l/m 0 min 0 min 0 W/m 3,2 km/h (1 Bft) 98,00 %
29.03.2021 00:20 9,4 C 7,8 C 5,6 C 78 % 1028,2 hPa 0,0 l/m 0 min 0 min 0 W/m 6,4 km/h (2 Bft) 97,87 %
29.03.2021 00:22 9,4 C 7,8 C 5,6 C 78 % 1028,1 hPa 0,0 l/m 0 min 0 min 0 W/m 3,2 km/h (1 Bft) 100,00 %
29.03.2021 00:24 9,3 C 7,8 C 5,6 C 78 % 1028,1 hPa 0,0 l/m 0 min 0 min 0 W/m 3,2 km/h (1 Bft) 100,00 %
29.03.2021 00:26 9,3 C 7,8 C 5,6 C 78 % 1028,1 hPa 0,0 l/m 0 min 0 min 0 W/m 3,2 km/h (1 Bft) 97,87 %
29.03.2021 00:28 9,3 C 7,8 C 5,6 C 79 % 1028,1 hPa 0,0 l/m 0 min 0 min 0 W/m 6,4 km/h (2 Bft) 97,67 %
29.03.2021 00:30 9,2 C 7,8 C 5,6 C 79 % 1028,1 hPa 0,0 l/m 0 min 0 min 0 W/m 3,2 km/h (1 Bft) 95,74 %
29.03.2021 00:32 9,2 C 7,8 C 5,6 C 79 % 1028,1 hPa 0,0 l/m 0 min 0 min 0 W/m 3,2 km/h (1 Bft) 93,75 %
29.03.2021 00:34 9,1 C 7,8 C 5,6 C 79 % 1028,1 hPa 0,0 l/m 0 min 0 min 0 W/m 3,2 km/h (1 Bft) 95,74 %
29.03.2021 00:36 9,1 C 7,8 C 5,6 C 79 % 1028,1 hPa 0,0 l/m 0 min 0 min 0 W/m 3,2 km/h (1 Bft) 95,74 %
29.03.2021 00:38 9,1 C 7,8 C 5,6 C 79 % 1028,1 hPa 0,0 l/m 0 min 0 min 0 W/m 3,2 km/h (1 Bft) 95,74 %
29.03.2021 00:40 9,0 C 7,8 C 5,6 C 79 % 1028,1 hPa 0,0 l/m 0 min 0 min 0 W/m 6,4 km/h (2 Bft) 95,74 %
29.03.2021 00:42 9,0 C 7,8 C 5,6 C 79 % 1028,1 hPa 0,0 l/m 0 min 0 min 0 W/m 6,4 km/h (2 Bft) 95,74 %
29.03.2021 00:44 9,0 C 7,8 C 5,6 C 80 % 1028,1 hPa 0,0 l/m 0 min 0 min 0 W/m 6,4 km/h (2 Bft) 95,65 %
29.03.2021 00:46 9,0 C 7,8 C 5,6 C 80 % 1028,0 hPa 0,0 l/m 0 min 0 min 0 W/m 6,4 km/h (2 Bft) 95,74 %
29.03.2021 00:48 9,0 C 7,8 C 5,6 C 80 % 1028,0 hPa 0,0 l/m 0 min 0 min 0 W/m 3,2 km/h (1 Bft) 93,62 %
29.03.2021 00:50 8,9 C 7,8 C 5,6 C 80 % 1028,0 hPa 0,0 l/m 0 min 0 min 0 W/m 3,2 km/h (1 Bft) 95,74 %
29.03.2021 00:52 8,9 C 7,8 C 5,6 C 80 % 1028,0 hPa 0,0 l/m 0 min 0 min 0 W/m 6,4 km/h (2 Bft) 93,62 %
29.03.2021 00:54 8,9 C 7,8 C 5,6 C 80 % 1028,0 hPa 0,0 l/m 0 min 0 min 0 W/m 6,4 km/h (2 Bft) 95,74 %
29.03.2021 00:56 8,9 C 8,3 C 5,6 C 80 % 1028,0 hPa 0,0 l/m 0 min 0 min 0 W/m 6,4 km/h (2 Bft) 95,65 %
29.03.2021 00:58 8,9 C 8,3 C 5,6 C 80 % 1028,0 hPa 0,0 l/m 0 min 0 min 0 W/m 3,2 km/h (1 Bft) 95,74 %
29.03.2021 01:00 8,9 C 8,3 C 5,6 C 80 % 1028,0 hPa 0,0 l/m 0 min 0 min 0 W/m 6,4 km/h (2 Bft) 95,74 %
29.03.2021 01:02 8,9 C 8,3 C 5,6 C 80 % 1028,0 hPa 0,0 l/m 0 min 0 min 0 W/m 6,4 km/h (2 Bft) 95,92 %
29.03.2021 01:04 8,9 C 8,3 C 5,6 C 80 % 1028,0 hPa 0,0 l/m 0 min 0 min 0 W/m 6,4 km/h (2 Bft) 93,62 %
29.03.2021 01:06 8,9 C 8,3 C 6,1 C 81 % 1028,0 hPa 0,0 l/m 0 min 0 min 0 W/m 6,4 km/h (2 Bft) 97,83 %
29.03.2021 01:08 8,9 C 8,3 C 6,1 C 81 % 1028,0 hPa 0,0 l/m 0 min 0 min 0 W/m 3,2 km/h (1 Bft) 95,74 %
29.03.2021 01:10 8,9 C 8,3 C 6,1 C 81 % 1028,0 hPa 0,0 l/m 0 min 0 min 0 W/m 6,4 km/h (2 Bft) 95,74 %
29.03.2021 01:12 8,9 C 8,3 C 6,1 C 81 % 1028,0 hPa 0,0 l/m 0 min 0 min 0 W/m 6,4 km/h (2 Bft) 97,87 %
29.03.2021 01:14 8,9 C 8,3 C 6,1 C 81 % 1028,0 hPa 0,0 l/m 0 min 0 min 0 W/m 6,4 km/h (2 Bft) 97,87 %
29.03.2021 01:16 8,9 C 8,3 C 5,6 C 81 % 1028,0 hPa 0,0 l/m 0 min 0 min 0 W/m 9,7 km/h (2 Bft) 97,87 %
29.03.2021 01:18 8,9 C 8,3 C 5,6 C 81 % 1028,0 hPa 0,0 l/m 0 min 0 min 0 W/m 6,4 km/h (2 Bft) 97,37 %
29.03.2021 01:20 8,9 C 8,3 C 5,6 C 81 % 1028,0 hPa 0,0 l/m 0 min 0 min 0 W/m 6,4 km/h (2 Bft) 98,08 %
29.03.2021 01:22 8,9 C 8,3 C 5,6 C 81 % 1028,0 hPa 0,0 l/m 0 min 0 min 0 W/m 12,9 km/h (3 Bft) 97,87 %
29.03.2021 01:24 8,9 C 8,3 C 5,6 C 80 % 1028,0 hPa 0,0 l/m 0 min 0 min 0 W/m 6,4 km/h (2 Bft) 97,87 %
29.03.2021 01:26 8,9 C 8,3 C 5,6 C 80 % 1028,0 hPa 0,0 l/m 0 min 0 min 0 W/m 6,4 km/h (2 Bft) 100,00 %
29.03.2021 01:28 8,9 C 8,3 C 5,6 C 80 % 1028,0 hPa 0,0 l/m 0 min 0 min 0 W/m 9,7 km/h (2 Bft) 100,00 %
29.03.2021 01:30 8,9 C 8,3 C 6,1 C 80 % 1028,1 hPa 0,0 l/m 0 min 0 min 0 W/m 3,2 km/h (1 Bft) 97,87 %
29.03.2021 01:32 8,9 C 8,3 C 6,1 C 80 % 1028,0 hPa 0,0 l/m 0 min 0 min 0 W/m 12,9 km/h (3 Bft) 100,00 %
29.03.2021 01:34 8,9 C 8,3 C 6,1 C 80 % 1028,0 hPa 0,0 l/m 0 min 0 min 0 W/m 12,9 km/h (3 Bft) 100,00 %
29.03.2021 01:36 8,9 C 8,3 C 6,1 C 80 % 1028,0 hPa 0,0 l/m 0 min 0 min 0 W/m 12,9 km/h (3 Bft) 97,87 %
29.03.2021 01:38 8,9 C 8,3 C 6,1 C 80 % 1027,9 hPa 0,0 l/m 0 min 0 min 0 W/m 6,4 km/h (2 Bft) 97,87 %
29.03.2021 01:40 8,9 C 8,3 C 6,1 C 79 % 1027,9 hPa 0,0 l/m 0 min 0 min 0 W/m 12,9 km/h (3 Bft) 97,87 %
29.03.2021 01:42 8,9 C 8,3 C 6,1 C 79 % 1027,9 hPa 0,0 l/m 0 min 0 min 0 W/m 12,9 km/h (3 Bft) 100,00 %
29.03.2021 01:44 9,0 C 8,3 C 6,1 C 79 % 1027,9 hPa 0,0 l/m 0 min 0 min 0 W/m 6,4 km/h (2 Bft) 100,00 %
29.03.2021 01:46 9,0 C 8,3 C 6,1 C 79 % 1028,0 hPa 0,0 l/m 0 min 0 min 0 W/m 12,9 km/h (3 Bft) 100,00 %
29.03.2021 01:48 9,0 C 8,3 C 6,1 C 78 % 1028,0 hPa 0,0 l/m 0 min 0 min 0 W/m 12,9 km/h (3 Bft) 97,87 %
29.03.2021 01:50 9,0 C 8,3 C 6,1 C 78 % 1028,1 hPa 0,0 l/m 0 min 0 min 0 W/m 9,7 km/h (2 Bft) 97,87 %
29.03.2021 01:52 9,0 C 8,3 C 6,1 C 78 % 1028,1 hPa 0,0 l/m 0 min 0 min 0 W/m 9,7 km/h (2 Bft) 100,00 %
29.03.2021 01:54 9,0 C 8,3 C 6,1 C 78 % 1028,1 hPa 0,0 l/m 0 min 0 min 0 W/m 6,4 km/h (2 Bft) 100,00 %
29.03.2021 01:56 9,0 C 8,3 C 6,1 C 78 % 1028,0 hPa 0,0 l/m 0 min 0 min 0 W/m 6,4 km/h (2 Bft) 100,00 %
29.03.2021 01:58 9,0 C 8,3 C 6,1 C 78 % 1028,0 hPa 0,0 l/m 0 min 0 min 0 W/m 9,7 km/h (2 Bft) 100,00 %
29.03.2021 02:00 9,0 C 8,3 C 6,1 C 78 % 1028,0 hPa 0,0 l/m 0 min 0 min 0 W/m 9,7 km/h (2 Bft) 100,00 %
29.03.2021 02:02 9,0 C 8,3 C 6,1 C 78 % 1028,0 hPa 0,0 l/m 0 min 0 min 0 W/m 9,7 km/h (2 Bft) 100,00 %
29.03.2021 02:04 9,1 C 8,3 C 6,1 C 78 % 1028,0 hPa 0,0 l/m 0 min 0 min 0 W/m 12,9 km/h (3 Bft) 100,00 %
29.03.2021 02:06 9,1 C 8,3 C 6,1 C 78 % 1028,0 hPa 0,0 l/m 0 min 0 min 0 W/m 3,2 km/h (1 Bft) 100,00 %
29.03.2021 02:08 9,1 C 8,3 C 6,1 C 77 % 1028,0 hPa 0,0 l/m 0 min 0 min 0 W/m 9,7 km/h (2 Bft) 100,00 %
29.03.2021 02:10 9,1 C 8,3 C 6,1 C 77 % 1028,0 hPa 0,0 l/m 0 min 0 min 0 W/m 6,4 km/h (2 Bft) 97,87 %
29.03.2021 02:12 9,1 C 8,3 C 6,1 C 77 % 1028,0 hPa 0,0 l/m 0 min 0 min 0 W/m 6,4 km/h (2 Bft) 95,74 %
29.03.2021 02:14 9,1 C 8,3 C 6,1 C 77 % 1028,0 hPa 0,0 l/m 0 min 0 min 0 W/m 6,4 km/h (2 Bft) 100,00 %
29.03.2021 02:16 9,1 C 8,3 C 6,1 C 77 % 1028,0 hPa 0,0 l/m 0 min 0 min 0 W/m 3,2 km/h (1 Bft) 100,00 %
29.03.2021 02:18 9,1 C 8,3 C 6,1 C 77 % 1028,0 hPa 0,0 l/m 0 min 0 min 0 W/m 6,4 km/h (2 Bft) 100,00 %
29.03.2021 02:20 9,0 C 8,3 C 6,1 C 77 % 1028,0 hPa 0,0 l/m 0 min 0 min 0 W/m 9,7 km/h (2 Bft) 100,00 %
29.03.2021 02:22 9,0 C 8,3 C 6,1 C 77 % 1028,0 hPa 0,0 l/m 0 min 0 min 0 W/m 6,4 km/h (2 Bft) 100,00 %
29.03.2021 02:24 9,0 C 8,3 C 5,6 C 77 % 1028,0 hPa 0,0 l/m 0 min 0 min 0 W/m 3,2 km/h (1 Bft) 100,00 %
29.03.2021 02:26 9,0 C 8,3 C 5,6 C 77 % 1028,0 hPa 0,0 l/m 0 min 0 min 0 W/m 6,4 km/h (2 Bft) 100,00 %
29.03.2021 02:28 9,0 C 7,8 C 5,6 C 77 % 1028,0 hPa 0,0 l/m 0 min 0 min 0 W/m 3,2 km/h (1 Bft) 100,00 %
29.03.2021 02:30 9,0 C 7,8 C 5,6 C 77 % 1028,0 hPa 0,0 l/m 0 min 0 min 0 W/m 9,7 km/h (2 Bft) 100,00 %
29.03.2021 02:32 9,0 C 7,8 C 5,6 C 77 % 1028,0 hPa 0,0 l/m 0 min 0 min 0 W/m 9,7 km/h (2 Bft) 100,00 %
29.03.2021 02:34 8,9 C 7,8 C 5,6 C 77 % 1028,0 hPa 0,0 l/m 0 min 0 min 0 W/m 6,4 km/h (2 Bft) 100,00 %
29.03.2021 02:36 8,9 C 7,8 C 5,6 C 77 % 1028,0 hPa 0,0 l/m 0 min 0 min 0 W/m 3,2 km/h (1 Bft) 97,87 %
29.03.2021 02:38 8,9 C 7,8 C 5,6 C 77 % 1028,0 hPa 0,0 l/m 0 min 0 min 0 W/m 6,4 km/h (2 Bft) 97,87 %
29.03.2021 02:40 8,9 C 7,8 C 5,6 C 78 % 1028,0 hPa 0,0 l/m 0 min 0 min 0 W/m 3,2 km/h (1 Bft) 100,00 %
29.03.2021 02:42 8,9 C 7,8 C 5,6 C 78 % 1028,1 hPa 0,0 l/m 0 min 0 min 0 W/m 6,4 km/h (2 Bft) 100,00 %
29.03.2021 02:44 8,8 C 7,8 C 5,6 C 78 % 1028,0 hPa 0,0 l/m 0 min 0 min 0 W/m 9,7 km/h (2 Bft) 100,00 %
29.03.2021 02:46 8,8 C 7,8 C 5,6 C 78 % 1028,0 hPa 0,0 l/m 0 min 0 min 0 W/m 6,4 km/h (2 Bft) 97,87 %
29.03.2021 02:48 8,8 C 7,8 C 5,6 C 77 % 1028,0 hPa 0,0 l/m 0 min 0 min 0 W/m 6,4 km/h (2 Bft) 100,00 %
29.03.2021 02:50 8,8 C 7,8 C 5,6 C 77 % 1028,1 hPa 0,0 l/m 0 min 0 min 0 W/m 6,4 km/h (2 Bft) 100,00 %
29.03.2021 02:52 8,8 C 7,8 C 5,6 C 78 % 1028,0 hPa 0,0 l/m 0 min 0 min 0 W/m 6,4 km/h (2 Bft) 97,83 %
29.03.2021 02:54 8,8 C 7,8 C 5,0 C 78 % 1028,0 hPa 0,0 l/m 0 min 0 min 0 W/m 6,4 km/h (2 Bft) 97,87 %
29.03.2021 02:56 8,7 C 7,8 C 5,0 C 78 % 1028,0 hPa 0,0 l/m 0 min 0 min 0 W/m 6,4 km/h (2 Bft) 97,87 %
29.03.2021 02:58 8,7 C 7,8 C 5,0 C 78 % 1028,0 hPa 0,0 l/m 0 min 0 min 0 W/m 6,4 km/h (2 Bft) 97,87 %
29.03.2021 03:00 8,6 C 7,8 C 5,0 C 78 % 1027,9 hPa 0,0 l/m 0 min 0 min 0 W/m 6,4 km/h (2 Bft) 97,87 %
29.03.2021 03:02 8,6 C 7,8 C 5,0 C 78 % 1028,0 hPa 0,0 l/m 0 min 0 min 0 W/m 6,4 km/h (2 Bft) 97,30 %
29.03.2021 03:04 8,6 C 7,8 C 5,0 C 78 % 1027,9 hPa 0,0 l/m 0 min 0 min 0 W/m 12,9 km/h (3 Bft) 95,74 %
29.03.2021 03:06 8,6 C 7,8 C 5,0 C 78 % 1027,9 hPa 0,0 l/m 0 min 0 min 0 W/m 6,4 km/h (2 Bft) 95,65 %
29.03.2021 03:08 8,6 C 7,8 C 5,0 C 78 % 1027,9 hPa 0,0 l/m 0 min 0 min 0 W/m 6,4 km/h (2 Bft) 95,74 %
29.03.2021 03:10 8,5 C 7,8 C 5,0 C 78 % 1027,9 hPa 0,0 l/m 0 min 0 min 0 W/m 6,4 km/h (2 Bft) 93,62 %
29.03.2021 03:12 8,5 C 7,8 C 5,0 C 78 % 1027,9 hPa 0,0 l/m 0 min 0 min 0 W/m 6,4 km/h (2 Bft) 93,62 %
29.03.2021 03:14 8,5 C 7,8 C 5,0 C 78 % 1028,0 hPa 0,0 l/m 0 min 0 min 0 W/m 9,7 km/h (2 Bft) 93,62 %
29.03.2021 03:16 8,5 C 7,8 C 5,0 C 78 % 1028,0 hPa 0,0 l/m 0 min 0 min 0 W/m 3,2 km/h (1 Bft) 95,83 %
29.03.2021 03:18 8,5 C 7,8 C 5,0 C 78 % 1028,0 hPa 0,0 l/m 0 min 0 min 0 W/m 6,4 km/h (2 Bft) 95,65 %
29.03.2021 03:20 8,5 C 7,2 C 5,0 C 78 % 1028,0 hPa 0,0 l/m 0 min 0 min 0 W/m 3,2 km/h (1 Bft) 93,62 %
29.03.2021 03:22 8,5 C 7,2 C 5,0 C 78 % 1027,9 hPa 0,0 l/m 0 min 0 min 0 W/m 3,2 km/h (1 Bft) 95,74 %
29.03.2021 03:24 8,5 C 7,8 C 5,0 C 78 % 1028,0 hPa 0,0 l/m 0 min 0 min 0 W/m 6,4 km/h (2 Bft) 95,92 %
29.03.2021 03:26 8,5 C 7,8 C 5,0 C 78 % 1027,9 hPa 0,0 l/m 0 min 0 min 0 W/m 6,4 km/h (2 Bft) 95,74 %
29.03.2021 03:28 8,4 C 7,2 C 5,0 C 78 % 1027,9 hPa 0,0 l/m 0 min 0 min 0 W/m 6,4 km/h (2 Bft) 95,74 %
29.03.2021 03:30 8,4 C 7,2 C 5,0 C 78 % 1027,9 hPa 0,0 l/m 0 min 0 min 0 W/m 6,4 km/h (2 Bft) 95,65 %
29.03.2021 03:32 8,4 C 7,8 C 5,0 C 78 % 1027,9 hPa 0,0 l/m 0 min 0 min 0 W/m 6,4 km/h (2 Bft) 95,74 %
29.03.2021 03:34 8,4 C 7,8 C 5,0 C 78 % 1027,9 hPa 0,0 l/m 0 min 0 min 0 W/m 6,4 km/h (2 Bft) 97,87 %
29.03.2021 03:36 8,4 C 7,2 C 5,0 C 78 % 1027,8 hPa 0,0 l/m 0 min 0 min 0 W/m 3,2 km/h (1 Bft) 97,87 %
29.03.2021 03:38 8,4 C 7,2 C 5,0 C 78 % 1027,9 hPa 0,0 l/m 0 min 0 min 0 W/m 3,2 km/h (1 Bft) 95,74 %
29.03.2021 03:40 8,4 C 7,8 C 5,0 C 78 % 1027,8 hPa 0,0 l/m 0 min 0 min 0 W/m 6,4 km/h (2 Bft) 93,62 %
29.03.2021 03:42 8,4 C 7,2 C 5,0 C 78 % 1027,8 hPa 0,0 l/m 0 min 0 min 0 W/m 6,4 km/h (2 Bft) 93,48 %
29.03.2021 03:44 8,4 C 7,2 C 5,0 C 78 % 1027,8 hPa 0,0 l/m 0 min 0 min 0 W/m 6,4 km/h (2 Bft) 95,74 %
29.03.2021 03:46 8,4 C 7,2 C 5,0 C 78 % 1027,8 hPa 0,0 l/m 0 min 0 min 0 W/m 6,4 km/h (2 Bft) 95,74 %
29.03.2021 03:48 8,4 C 7,8 C 5,0 C 78 % 1027,8 hPa 0,0 l/m 0 min 0 min 0 W/m 6,4 km/h (2 Bft) 95,74 %
29.03.2021 03:50 8,4 C 7,8 C 5,0 C 78 % 1027,8 hPa 0,0 l/m 0 min 0 min 0 W/m 6,4 km/h (2 Bft) 93,62 %
29.03.2021 03:52 8,4 C 7,8 C 5,0 C 78 % 1027,8 hPa 0,0 l/m 0 min 0 min 0 W/m 6,4 km/h (2 Bft) 95,74 %
29.03.2021 03:54 8,4 C 7,2 C 5,0 C 78 % 1027,8 hPa 0,0 l/m 0 min 0 min 0 W/m 3,2 km/h (1 Bft) 95,65 %
29.03.2021 03:56 8,4 C 7,8 C 5,0 C 78 % 1027,8 hPa 0,0 l/m 0 min 0 min 0 W/m 6,4 km/h (2 Bft) 95,74 %
29.03.2021 03:58 8,4 C 7,2 C 5,0 C 78 % 1027,8 hPa 0,0 l/m 0 min 0 min 0 W/m 6,4 km/h (2 Bft) 93,62 %
29.03.2021 04:00 8,4 C 7,2 C 5,0 C 78 % 1027,9 hPa 0,0 l/m 0 min 0 min 0 W/m 6,4 km/h (2 Bft) 93,62 %
29.03.2021 04:05 8,4 C 7,2 C 5,0 C 78 % 1027,8 hPa 0,0 l/m 0 min 0 min 0 W/m 3,2 km/h (1 Bft) 95,38 %
29.03.2021 04:06 8,4 C 7,2 C 5,0 C 78 % 1027,8 hPa 0,0 l/m 0 min 0 min 0 W/m 3,2 km/h (1 Bft) 90,91 %
29.03.2021 04:08 8,4 C 7,2 C 5,0 C 78 % 1027,9 hPa 0,0 l/m 0 min 0 min 0 W/m 3,2 km/h (1 Bft) 93,62 %
29.03.2021 04:10 8,3 C 7,2 C 5,0 C 78 % 1027,8 hPa 0,0 l/m 0 min 0 min 0 W/m 3,2 km/h (1 Bft) 95,74 %
29.03.2021 04:12 8,3 C 7,2 C 5,0 C 78 % 1027,9 hPa 0,0 l/m 0 min 0 min 0 W/m 3,2 km/h (1 Bft) 93,62 %
29.03.2021 04:14 8,3 C 7,2 C 5,0 C 78 % 1027,9 hPa 0,0 l/m 0 min 0 min 0 W/m 3,2 km/h (1 Bft) 93,62 %
29.03.2021 04:16 8,3 C 7,2 C 5,0 C 78 % 1027,9 hPa 0,0 l/m 0 min 0 min 0 W/m 3,2 km/h (1 Bft) 95,74 %
29.03.2021 04:18 8,3 C 7,2 C 5,0 C 78 % 1027,8 hPa 0,0 l/m 0 min 0 min 0 W/m 3,2 km/h (1 Bft) 93,48 %
29.03.2021 04:20 8,3 C 7,2 C 5,0 C 78 % 1027,8 hPa 0,0 l/m 0 min 0 min 0 W/m 3,2 km/h (1 Bft) 95,74 %
29.03.2021 04:22 8,3 C 7,2 C 5,0 C 78 % 1027,8 hPa 0,0 l/m 0 min 0 min 0 W/m 3,2 km/h (1 Bft) 93,62 %
29.03.2021 04:24 8,3 C 7,2 C 5,0 C 78 % 1027,9 hPa 0,0 l/m 0 min 0 min 0 W/m 3,2 km/h (1 Bft) 95,74 %
29.03.2021 04:26 8,3 C 7,2 C 5,0 C 78 % 1027,8 hPa 0,0 l/m 0 min 0 min 0 W/m 6,4 km/h (2 Bft) 98,25 %
29.03.2021 04:28 8,3 C 7,2 C 5,0 C 78 % 1027,8 hPa 0,0 l/m 0 min 0 min 0 W/m 3,2 km/h (1 Bft) 100,00 %
29.03.2021 04:30 8,3 C 7,2 C 5,0 C 78 % 1027,8 hPa 0,0 l/m 0 min 0 min 0 W/m 3,2 km/h (1 Bft) 95,74 %
29.03.2021 04:32 8,2 C 7,2 C 5,0 C 78 % 1027,8 hPa 0,0 l/m 0 min 0 min 0 W/m 6,4 km/h (2 Bft) 97,30 %
29.03.2021 04:34 8,2 C 7,2 C 5,0 C 78 % 1027,8 hPa 0,0 l/m 0 min 0 min 0 W/m 9,7 km/h (2 Bft) 100,00 %
29.03.2021 04:36 8,2 C 7,2 C 5,0 C 78 % 1027,8 hPa 0,0 l/m 0 min 0 min 0 W/m 3,2 km/h (1 Bft) 100,00 %
29.03.2021 04:38 8,3 C 7,2 C 5,0 C 78 % 1027,8 hPa 0,0 l/m 0 min 0 min 0 W/m 6,4 km/h (2 Bft) 97,87 %
29.03.2021 04:40 8,3 C 7,2 C 5,0 C 78 % 1027,8 hPa 0,0 l/m 0 min 0 min 0 W/m 6,4 km/h (2 Bft) 97,83 %
29.03.2021 04:42 8,3 C 7,2 C 5,0 C 78 % 1027,8 hPa 0,0 l/m 0 min 0 min 0 W/m 6,4 km/h (2 Bft) 100,00 %
29.03.2021 04:44 8,3 C 7,2 C 5,0 C 78 % 1027,8 hPa 0,0 l/m 0 min 0 min 0 W/m 9,7 km/h (2 Bft) 100,00 %
29.03.2021 04:46 8,3 C 7,8 C 5,0 C 78 % 1027,8 hPa 0,0 l/m 0 min 0 min 0 W/m 6,4 km/h (2 Bft) 100,00 %
29.03.2021 04:48 8,3 C 7,8 C 5,0 C 77 % 1027,8 hPa 0,0 l/m 0 min 0 min 0 W/m 6,4 km/h (2 Bft) 97,87 %
29.03.2021 04:50 8,3 C 7,2 C 5,0 C 77 % 1027,8 hPa 0,0 l/m 0 min 0 min 0 W/m 6,4 km/h (2 Bft) 97,87 %
29.03.2021 04:52 8,3 C 7,2 C 5,0 C 77 % 1027,8 hPa 0,0 l/m 0 min 0 min 0 W/m 6,4 km/h (2 Bft) 100,00 %
29.03.2021 04:54 8,3 C 7,2 C 5,0 C 77 % 1027,8 hPa 0,0 l/m 0 min 0 min 0 W/m 6,4 km/h (2 Bft) 95,74 %
29.03.2021 04:56 8,3 C 7,2 C 5,0 C 77 % 1027,8 hPa 0,0 l/m 0 min 0 min 0 W/m 6,4 km/h (2 Bft) 100,00 %
29.03.2021 04:58 8,3 C 7,2 C 5,0 C 77 % 1027,8 hPa 0,0 l/m 0 min 0 min 0 W/m 6,4 km/h (2 Bft) 100,00 %
29.03.2021 05:00 8,3 C 7,2 C 5,0 C 77 % 1027,8 hPa 0,0 l/m 0 min 0 min 0 W/m 6,4 km/h (2 Bft) 100,00 %
29.03.2021 05:02 8,3 C 7,2 C 5,0 C 77 % 1027,9 hPa 0,0 l/m 0 min 0 min 0 W/m 6,4 km/h (2 Bft) 100,00 %
29.03.2021 05:04 8,3 C 7,2 C 5,0 C 77 % 1027,9 hPa 0,0 l/m 0 min 0 min 0 W/m 3,2 km/h (1 Bft) 97,83 %
29.03.2021 05:06 8,3 C 7,2 C 5,0 C 77 % 1027,9 hPa 0,0 l/m 0 min 0 min 0 W/m 6,4 km/h (2 Bft) 100,00 %
29.03.2021 05:08 8,3 C 7,2 C 5,0 C 77 % 1027,9 hPa 0,0 l/m 0 min 0 min 0 W/m 3,2 km/h (1 Bft) 100,00 %
29.03.2021 05:10 8,3 C 7,2 C 5,0 C 77 % 1027,9 hPa 0,0 l/m 0 min 0 min 0 W/m 3,2 km/h (1 Bft) 97,87 %
29.03.2021 05:12 8,3 C 7,2 C 5,0 C 77 % 1027,9 hPa 0,0 l/m 0 min 0 min 0 W/m 6,4 km/h (2 Bft) 97,87 %
29.03.2021 05:14 8,2 C 7,2 C 5,0 C 77 % 1027,9 hPa 0,0 l/m 0 min 0 min 0 W/m 6,4 km/h (2 Bft) 97,87 %
29.03.2021 05:16 8,2 C 7,2 C 5,0 C 78 % 1027,9 hPa 0,0 l/m 0 min 0 min 0 W/m 6,4 km/h (2 Bft) 95,65 %
29.03.2021 05:18 8,2 C 7,2 C 5,0 C 78 % 1027,9 hPa 0,0 l/m 0 min 0 min 0 W/m 6,4 km/h (2 Bft) 95,74 %
29.03.2021 05:20 8,2 C 7,2 C 5,0 C 78 % 1027,9 hPa 0,0 l/m 0 min 0 min 0 W/m 12,9 km/h (3 Bft) 97,87 %
29.03.2021 05:22 8,2 C 7,2 C 5,0 C 78 % 1027,8 hPa 0,0 l/m 0 min 0 min 0 W/m 6,4 km/h (2 Bft) 95,74 %
29.03.2021 05:24 8,2 C 7,2 C 5,0 C 78 % 1027,9 hPa 0,0 l/m 0 min 0 min 0 W/m 6,4 km/h (2 Bft) 97,87 %
29.03.2021 05:26 8,1 C 7,2 C 5,0 C 78 % 1027,9 hPa 0,0 l/m 0 min 0 min 0 W/m 12,9 km/h (3 Bft) 97,83 %
29.03.2021 05:28 8,1 C 7,2 C 5,0 C 78 % 1027,9 hPa 0,0 l/m 0 min 0 min 0 W/m 6,4 km/h (2 Bft) 95,74 %
29.03.2021 05:30 8,1 C 7,2 C 5,0 C 78 % 1027,8 hPa 0,0 l/m 0 min 0 min 0 W/m 3,2 km/h (1 Bft) 97,87 %
29.03.2021 05:32 8,1 C 7,2 C 5,0 C 78 % 1027,8 hPa 0,0 l/m 0 min 0 min 0 W/m 6,4 km/h (2 Bft) 97,87 %
29.03.2021 05:34 8,1 C 7,2 C 5,0 C 78 % 1027,8 hPa 0,0 l/m 0 min 0 min 0 W/m 3,2 km/h (1 Bft) 97,87 %
29.03.2021 05:36 8,1 C 7,2 C 5,0 C 78 % 1027,8 hPa 0,0 l/m 0 min 0 min 0 W/m 9,7 km/h (2 Bft) 97,87 %
29.03.2021 05:38 8,1 C 7,2 C 4,5 C 78 % 1027,9 hPa 0,0 l/m 0 min 0 min 0 W/m 6,4 km/h (2 Bft) 97,83 %
29.03.2021 05:40 8,1 C 7,2 C 4,5 C 78 % 1027,9 hPa 0,0 l/m 0 min 0 min 0 W/m 9,7 km/h (2 Bft) 97,87 %
29.03.2021 05:42 8,1 C 7,2 C 4,5 C 78 % 1027,8 hPa 0,0 l/m 0 min 0 min 0 W/m 6,4 km/h (2 Bft) 97,87 %
29.03.2021 05:44 8,1 C 7,2 C 4,5 C 78 % 1027,8 hPa 0,0 l/m 0 min 0 min 0 W/m 6,4 km/h (2 Bft) 97,87 %
29.03.2021 05:46 8,1 C 7,2 C 4,5 C 78 % 1027,9 hPa 0,0 l/m 0 min 0 min 0 W/m 6,4 km/h (2 Bft) 97,87 %
29.03.2021 05:48 8,0 C 7,2 C 4,5 C 78 % 1027,9 hPa 0,0 l/m 0 min 0 min 0 W/m 3,2 km/h (1 Bft) 95,74 %
29.03.2021 05:50 8,0 C 7,2 C 4,5 C 78 % 1028,0 hPa 0,0 l/m 0 min 0 min 0 W/m 3,2 km/h (1 Bft) 97,83 %
29.03.2021 05:52 8,0 C 7,2 C 4,5 C 78 % 1028,0 hPa 0,0 l/m 0 min 0 min 0 W/m 6,4 km/h (2 Bft) 100,00 %
29.03.2021 05:54 8,0 C 7,2 C 4,5 C 78 % 1028,0 hPa 0,0 l/m 0 min 0 min 0 W/m 6,4 km/h (2 Bft) 100,00 %
29.03.2021 05:56 8,0 C 7,2 C 4,5 C 78 % 1028,0 hPa 0,0 l/m 0 min 0 min 0 W/m 6,4 km/h (2 Bft) 100,00 %
29.03.2021 05:58 8,0 C 7,2 C 4,5 C 78 % 1028,0 hPa 0,0 l/m 0 min 0 min 0 W/m 6,4 km/h (2 Bft) 100,00 %
29.03.2021 06:00 8,0 C 7,2 C 4,5 C 78 % 1027,9 hPa 0,0 l/m 0 min 0 min 0 W/m 6,4 km/h (2 Bft) 100,00 %
29.03.2021 06:02 8,0 C 7,2 C 4,5 C 78 % 1028,0 hPa 0,0 l/m 0 min 0 min 0 W/m 6,4 km/h (2 Bft) 98,15 %
29.03.2021 06:04 8,0 C 7,2 C 4,5 C 78 % 1027,9 hPa 0,0 l/m 0 min 0 min 0 W/m 6,4 km/h (2 Bft) 100,00 %
29.03.2021 06:08 7,9 C 7,2 C 4,5 C 79 % 1028,0 hPa 0,0 l/m 0 min 0 min 0 W/m 6,4 km/h (2 Bft) 98,84 %
29.03.2021 06:10 7,9 C 7,2 C 4,5 C 79 % 1028,0 hPa 0,0 l/m 0 min 0 min 0 W/m 6,4 km/h (2 Bft) 100,00 %
29.03.2021 06:12 7,9 C 7,2 C 4,5 C 79 % 1028,0 hPa 0,0 l/m 0 min 0 min 0 W/m 6,4 km/h (2 Bft) 97,73 %
29.03.2021 06:14 7,9 C 7,2 C 4,5 C 79 % 1028,0 hPa 0,0 l/m 0 min 0 min 0 W/m 3,2 km/h (1 Bft) 100,00 %
29.03.2021 06:16 7,9 C 7,2 C 4,5 C 79 % 1028,0 hPa 0,0 l/m 0 min 0 min 0 W/m 6,4 km/h (2 Bft) 100,00 %
29.03.2021 06:18 7,9 C 6,7 C 4,5 C 79 % 1028,0 hPa 0,0 l/m 0 min 0 min 0 W/m 6,4 km/h (2 Bft) 100,00 %
29.03.2021 06:20 7,9 C 6,7 C 4,5 C 79 % 1027,9 hPa 0,0 l/m 0 min 0 min 0 W/m 3,2 km/h (1 Bft) 100,00 %
29.03.2021 06:22 7,9 C 6,7 C 4,5 C 79 % 1027,9 hPa 0,0 l/m 0 min 0 min 0 W/m 12,9 km/h (3 Bft) 93,62 %
29.03.2021 06:24 7,9 C 6,7 C 4,5 C 79 % 1027,9 hPa 0,0 l/m 0 min 0 min 0 W/m 6,4 km/h (2 Bft) 98,11 %
29.03.2021 06:26 7,8 C 6,7 C 4,5 C 79 % 1027,9 hPa 0,0 l/m 0 min 0 min 0 W/m 3,2 km/h (1 Bft) 100,00 %
29.03.2021 06:28 7,8 C 6,7 C 4,5 C 79 % 1027,9 hPa 0,0 l/m 0 min 0 min 0 W/m 6,4 km/h (2 Bft) 100,00 %
29.03.2021 06:30 7,8 C 6,7 C 4,5 C 79 % 1028,0 hPa 0,0 l/m 0 min 0 min 0 W/m 3,2 km/h (1 Bft) 100,00 %
29.03.2021 06:32 7,8 C 6,7 C 4,5 C 79 % 1027,9 hPa 0,0 l/m 0 min 0 min 0 W/m 6,4 km/h (2 Bft) 100,00 %
29.03.2021 06:34 7,8 C 6,7 C 4,5 C 79 % 1028,0 hPa 0,0 l/m 0 min 0 min 0 W/m 6,4 km/h (2 Bft) 100,00 %
29.03.2021 06:36 7,8 C 6,7 C 4,5 C 79 % 1028,0 hPa 0,0 l/m 0 min 0 min 0 W/m 6,4 km/h (2 Bft) 97,87 %
29.03.2021 06:38 7,8 C 6,7 C 4,5 C 79 % 1028,0 hPa 0,0 l/m 0 min 0 min 0 W/m 3,2 km/h (1 Bft) 100,00 %
29.03.2021 06:40 7,8 C 6,7 C 4,5 C 79 % 1028,0 hPa 0,0 l/m 0 min 0 min 0 W/m 6,4 km/h (2 Bft) 100,00 %
29.03.2021 06:42 7,7 C 6,7 C 4,5 C 79 % 1028,0 hPa 0,0 l/m 0 min 0 min 0 W/m 9,7 km/h (2 Bft) 97,96 %
29.03.2021 06:44 7,7 C 6,7 C 4,5 C 79 % 1028,0 hPa 0,0 l/m 0 min 0 min 0 W/m 6,4 km/h (2 Bft) 97,92 %
29.03.2021 06:46 7,7 C 6,7 C 4,5 C 80 % 1028,0 hPa 0,0 l/m 0 min 0 min 0 W/m 3,2 km/h (1 Bft) 97,87 %
29.03.2021 06:48 7,7 C 6,7 C 4,5 C 80 % 1028,0 hPa 0,0 l/m 0 min 0 min 0 W/m 6,4 km/h (2 Bft) 98,08 %
29.03.2021 06:50 7,7 C 6,7 C 4,5 C 80 % 1028,1 hPa 0,0 l/m 0 min 0 min 0 W/m 6,4 km/h (2 Bft) 93,88 %
29.03.2021 06:52 7,7 C 6,7 C 4,5 C 80 % 1028,1 hPa 0,0 l/m 0 min 0 min 0 W/m 3,2 km/h (1 Bft) 97,30 %
29.03.2021 06:54 7,6 C 6,7 C 4,5 C 80 % 1028,0 hPa 0,0 l/m 0 min 0 min 0 W/m 3,2 km/h (1 Bft) 95,92 %
29.03.2021 06:56 7,6 C 6,7 C 4,5 C 80 % 1028,0 hPa 0,0 l/m 0 min 0 min 0 W/m 3,2 km/h (1 Bft) 97,87 %
29.03.2021 06:58 7,6 C 6,7 C 4,5 C 80 % 1028,1 hPa 0,0 l/m 0 min 0 min 0 W/m 3,2 km/h (1 Bft) 95,74 %
29.03.2021 07:00 7,6 C 6,7 C 4,5 C 80 % 1028,1 hPa 0,0 l/m 0 min 0 min 0 W/m 3,2 km/h (1 Bft) 98,11 %
29.03.2021 07:02 7,6 C 6,7 C 4,5 C 80 % 1028,1 hPa 0,0 l/m 0 min 0 min 0 W/m 3,2 km/h (1 Bft) 97,92 %
29.03.2021 07:04 7,6 C 6,7 C 4,5 C 80 % 1028,1 hPa 0,0 l/m 0 min 0 min 0 W/m 3,2 km/h (1 Bft) 97,22 %
29.03.2021 07:06 7,6 C 6,7 C 3,9 C 80 % 1028,2 hPa 0,0 l/m 0 min 0 min 0 W/m 3,2 km/h (1 Bft) 97,37 %
29.03.2021 07:08 7,6 C 6,7 C 3,9 C 80 % 1028,2 hPa 0,0 l/m 0 min 0 min 0 W/m 6,4 km/h (2 Bft) 98,31 %
29.03.2021 07:10 7,5 C 6,7 C 3,9 C 80 % 1028,2 hPa 0,0 l/m 0 min 0 min 0 W/m 3,2 km/h (1 Bft) 93,62 %
29.03.2021 07:12 7,5 C 6,7 C 3,9 C 81 % 1028,2 hPa 0,0 l/m 0 min 0 min 0 W/m 3,2 km/h (1 Bft) 95,45 %
29.03.2021 07:14 7,5 C 6,7 C 3,9 C 80 % 1028,2 hPa 0,0 l/m 0 min 0 min 0 W/m 3,2 km/h (1 Bft) 87,50 %
29.03.2021 07:16 7,5 C 6,7 C 3,9 C 80 % 1028,2 hPa 0,0 l/m 0 min 0 min 0 W/m 3,2 km/h (1 Bft) 91,67 %
29.03.2021 07:18 7,5 C 6,7 C 3,9 C 81 % 1028,2 hPa 0,0 l/m 0 min 0 min 5 W/m 3,2 km/h (1 Bft) 78,72 %
29.03.2021 07:20 7,5 C 6,7 C 3,9 C 81 % 1028,2 hPa 0,0 l/m 0 min 0 min 5 W/m 3,2 km/h (1 Bft) 75,93 %
29.03.2021 07:22 7,5 C 6,1 C 3,9 C 81 % 1028,2 hPa 0,0 l/m 0 min 0 min 7 W/m 3,2 km/h (1 Bft) 94,74 %
29.03.2021 07:24 7,4 C 6,1 C 3,9 C 81 % 1028,3 hPa 0,0 l/m 0 min 0 min 8 W/m 3,2 km/h (1 Bft) 95,65 %
29.03.2021 07:26 7,4 C 6,1 C 3,9 C 81 % 1028,3 hPa 0,0 l/m 0 min 0 min 9 W/m 3,2 km/h (1 Bft) 95,74 %
29.03.2021 07:28 7,4 C 6,1 C 3,9 C 81 % 1028,4 hPa 0,0 l/m 0 min 0 min 11 W/m 3,2 km/h (1 Bft) 95,74 %
29.03.2021 07:30 7,4 C 6,7 C 3,9 C 81 % 1028,4 hPa 0,0 l/m 0 min 0 min 11 W/m 3,2 km/h (1 Bft) 91,49 %
29.03.2021 07:32 7,4 C 6,7 C 3,9 C 81 % 1028,4 hPa 0,0 l/m 0 min 0 min 12 W/m 3,2 km/h (1 Bft) 85,71 %
29.03.2021 07:34 7,4 C 6,7 C 3,9 C 81 % 1028,5 hPa 0,0 l/m 0 min 0 min 13 W/m 3,2 km/h (1 Bft) 89,36 %
29.03.2021 07:36 7,4 C 6,7 C 3,9 C 82 % 1028,5 hPa 0,0 l/m 0 min 0 min 14 W/m 3,2 km/h (1 Bft) 97,87 %
29.03.2021 07:38 7,4 C 6,7 C 3,9 C 82 % 1028,5 hPa 0,0 l/m 0 min 0 min 14 W/m 3,2 km/h (1 Bft) 89,13 %
29.03.2021 07:40 7,4 C 6,7 C 3,9 C 82 % 1028,5 hPa 0,0 l/m 0 min 0 min 15 W/m 6,4 km/h (2 Bft) 97,87 %
29.03.2021 07:42 7,4 C 6,7 C 4,5 C 82 % 1028,5 hPa 0,0 l/m 0 min 0 min 16 W/m 3,2 km/h (1 Bft) 95,74 %
29.03.2021 07:44 7,4 C 6,7 C 4,5 C 82 % 1028,5 hPa 0,0 l/m 0 min 0 min 18 W/m 6,4 km/h (2 Bft) 95,74 %
29.03.2021 07:46 7,4 C 6,7 C 4,5 C 82 % 1028,5 hPa 0,0 l/m 0 min 0 min 18 W/m 3,2 km/h (1 Bft) 93,62 %
29.03.2021 07:48 7,4 C 6,7 C 4,5 C 82 % 1028,5 hPa 0,0 l/m 0 min 0 min 19 W/m 3,2 km/h (1 Bft) 93,48 %
29.03.2021 07:50 7,4 C 6,7 C 4,5 C 82 % 1028,5 hPa 0,0 l/m 0 min 0 min 20 W/m 6,4 km/h (2 Bft) 95,74 %
29.03.2021 07:52 7,5 C 7,2 C 4,5 C 82 % 1028,6 hPa 0,0 l/m 0 min 0 min 21 W/m 3,2 km/h (1 Bft) 95,74 %
29.03.2021 07:54 7,5 C 7,2 C 4,5 C 82 % 1028,6 hPa 0,0 l/m 0 min 0 min 21 W/m 6,4 km/h (2 Bft) 93,62 %
29.03.2021 07:56 7,5 C 7,2 C 4,5 C 82 % 1028,6 hPa 0,0 l/m 0 min 0 min 22 W/m 3,2 km/h (1 Bft) 93,62 %
29.03.2021 07:58 7,5 C 7,2 C 4,5 C 82 % 1028,6 hPa 0,0 l/m 0 min 0 min 23 W/m 0,0 km/h (0 Bft) 93,62 %
29.03.2021 08:00 7,5 C 7,2 C 4,5 C 82 % 1028,6 hPa 0,0 l/m 0 min 0 min 24 W/m 3,2 km/h (1 Bft) 95,65 %
29.03.2021 08:02 7,6 C 7,2 C 4,5 C 82 % 1028,6 hPa 0,0 l/m 0 min 0 min 25 W/m 3,2 km/h (1 Bft) 96,23 %
29.03.2021 08:04 7,6 C 7,2 C 4,5 C 82 % 1028,6 hPa 0,0 l/m 0 min 0 min 26 W/m 3,2 km/h (1 Bft) 92,68 %
29.03.2021 08:06 7,6 C 7,2 C 4,5 C 82 % 1028,8 hPa 0,0 l/m 0 min 0 min 26 W/m 3,2 km/h (1 Bft) 95,74 %
29.03.2021 08:08 7,6 C 7,2 C 4,5 C 82 % 1028,7 hPa 0,0 l/m 0 min 0 min 26 W/m 3,2 km/h (1 Bft) 93,62 %
29.03.2021 08:10 7,7 C 7,2 C 4,5 C 82 % 1028,8 hPa 0,0 l/m 0 min 0 min 27 W/m 3,2 km/h (1 Bft) 95,74 %
29.03.2021 08:12 7,7 C 7,2 C 4,5 C 82 % 1028,8 hPa 0,0 l/m 0 min 0 min 28 W/m 3,2 km/h (1 Bft) 95,65 %
29.03.2021 08:14 7,8 C 7,2 C 4,5 C 82 % 1028,8 hPa 0,0 l/m 0 min 0 min 30 W/m 6,4 km/h (2 Bft) 95,74 %
29.03.2021 08:16 7,8 C 7,8 C 4,5 C 82 % 1028,8 hPa 0,0 l/m 0 min 0 min 30 W/m 6,4 km/h (2 Bft) 98,11 %
29.03.2021 08:18 7,9 C 7,8 C 5,0 C 82 % 1028,8 hPa 0,0 l/m 0 min 0 min 32 W/m 3,2 km/h (1 Bft) 97,87 %
29.03.2021 08:20 7,9 C 7,8 C 5,0 C 82 % 1028,8 hPa 0,0 l/m 0 min 0 min 32 W/m 3,2 km/h (1 Bft) 97,87 %
29.03.2021 08:22 8,0 C 7,8 C 5,0 C 82 % 1028,8 hPa 0,0 l/m 0 min 0 min 33 W/m 3,2 km/h (1 Bft) 97,83 %
29.03.2021 08:24 8,0 C 7,8 C 5,0 C 82 % 1028,8 hPa 0,0 l/m 0 min 0 min 34 W/m 6,4 km/h (2 Bft) 95,74 %
29.03.2021 08:26 8,1 C 7,8 C 5,0 C 81 % 1028,8 hPa 0,0 l/m 0 min 0 min 35 W/m 3,2 km/h (1 Bft) 97,87 %
29.03.2021 08:28 8,1 C 7,8 C 5,0 C 81 % 1028,8 hPa 0,0 l/m 0 min 0 min 35 W/m 6,4 km/h (2 Bft) 97,87 %
29.03.2021 08:30 8,2 C 8,3 C 5,0 C 81 % 1028,9 hPa 0,0 l/m 0 min 0 min 38 W/m 6,4 km/h (2 Bft) 97,87 %
29.03.2021 08:32 8,3 C 8,3 C 5,0 C 81 % 1028,9 hPa 0,0 l/m 0 min 0 min 39 W/m 6,4 km/h (2 Bft) 89,36 %
29.03.2021 08:34 8,3 C 8,3 C 5,6 C 81 % 1028,9 hPa 0,0 l/m 0 min 0 min 40 W/m 9,7 km/h (2 Bft) 97,56 %
29.03.2021 08:36 8,4 C 8,3 C 5,6 C 81 % 1028,9 hPa 0,0 l/m 0 min 0 min 41 W/m 9,7 km/h (2 Bft) 97,83 %
29.03.2021 08:38 8,4 C 8,3 C 5,6 C 81 % 1028,9 hPa 0,0 l/m 0 min 0 min 42 W/m 6,4 km/h (2 Bft) 97,87 %
29.03.2021 08:40 8,5 C 8,3 C 5,6 C 80 % 1029,0 hPa 0,0 l/m 0 min 0 min 43 W/m 6,4 km/h (2 Bft) 97,87 %
29.03.2021 08:42 8,5 C 8,3 C 5,6 C 80 % 1029,0 hPa 0,0 l/m 0 min 0 min 45 W/m 6,4 km/h (2 Bft) 97,87 %
29.03.2021 08:44 8,6 C 8,9 C 5,6 C 80 % 1029,0 hPa 0,0 l/m 0 min 0 min 46 W/m 6,4 km/h (2 Bft) 97,87 %
29.03.2021 08:46 8,7 C 8,9 C 5,6 C 80 % 1029,0 hPa 0,0 l/m 0 min 0 min 47 W/m 9,7 km/h (2 Bft) 95,74 %
29.03.2021 08:48 8,8 C 8,9 C 6,1 C 80 % 1029,0 hPa 0,0 l/m 0 min 0 min 48 W/m 12,9 km/h (3 Bft) 95,65 %
29.03.2021 08:50 8,8 C 8,9 C 6,1 C 80 % 1029,0 hPa 0,0 l/m 0 min 0 min 50 W/m 6,4 km/h (2 Bft) 95,74 %
29.03.2021 08:52 8,9 C 8,9 C 6,1 C 80 % 1028,9 hPa 0,0 l/m 0 min 0 min 51 W/m 9,7 km/h (2 Bft) 97,87 %
29.03.2021 08:54 9,0 C 8,9 C 6,1 C 80 % 1028,9 hPa 0,0 l/m 0 min 0 min 53 W/m 12,9 km/h (3 Bft) 100,00 %
29.03.2021 08:56 9,1 C 9,4 C 6,1 C 79 % 1028,9 hPa 0,0 l/m 0 min 0 min 55 W/m 12,9 km/h (3 Bft) 97,87 %
29.03.2021 08:58 9,1 C 9,4 C 6,1 C 79 % 1028,9 hPa 0,0 l/m 0 min 0 min 60 W/m 9,7 km/h (2 Bft) 100,00 %
29.03.2021 09:00 9,3 C 9,4 C 6,1 C 79 % 1029,0 hPa 0,0 l/m 0 min 0 min 62 W/m 9,7 km/h (2 Bft) 100,00 %
29.03.2021 09:02 9,3 C 9,4 C 6,7 C 79 % 1028,9 hPa 0,0 l/m 0 min 0 min 67 W/m 6,4 km/h (2 Bft) 100,00 %
29.03.2021 09:04 9,4 C 9,4 C 6,7 C 79 % 1029,0 hPa 0,0 l/m 0 min 0 min 72 W/m 12,9 km/h (3 Bft) 100,00 %
29.03.2021 09:06 9,5 C 9,4 C 6,7 C 79 % 1029,0 hPa 0,0 l/m 0 min 0 min 77 W/m 12,9 km/h (3 Bft) 97,87 %
29.03.2021 09:08 9,6 C 10,0 C 6,7 C 78 % 1029,0 hPa 0,0 l/m 0 min 0 min 80 W/m 12,9 km/h (3 Bft) 100,00 %
29.03.2021 09:10 9,6 C 10,0 C 6,7 C 78 % 1029,0 hPa 0,0 l/m 0 min 0 min 82 W/m 12,9 km/h (3 Bft) 100,00 %
29.03.2021 09:12 9,8 C 10,0 C 6,7 C 78 % 1029,0 hPa 0,0 l/m 0 min 0 min 84 W/m 12,9 km/h (3 Bft) 100,00 %
29.03.2021 09:14 9,9 C 10,0 C 7,3 C 78 % 1029,0 hPa 0,0 l/m 0 min 0 min 87 W/m 6,4 km/h (2 Bft) 100,00 %
29.03.2021 09:16 9,9 C 10,6 C 7,3 C 78 % 1029,0 hPa 0,0 l/m 0 min 0 min 90 W/m 6,4 km/h (2 Bft) 100,00 %
29.03.2021 09:18 10,0 C 10,6 C 7,3 C 78 % 1029,0 hPa 0,0 l/m 0 min 0 min 91 W/m 12,9 km/h (3 Bft) 97,87 %
29.03.2021 09:20 10,1 C 10,6 C 7,3 C 77 % 1029,0 hPa 0,0 l/m 2 min 0 min 175 W/m 9,7 km/h (2 Bft) 100,00 %
29.03.2021 09:22 10,3 C 10,6 C 7,8 C 77 % 1029,0 hPa 0,0 l/m 2 min 0 min 282 W/m 22,5 km/h (4 Bft) 100,00 %
29.03.2021 09:24 10,4 C 10,6 C 7,8 C 77 % 1029,0 hPa 0,0 l/m 2 min 0 min 260 W/m 12,9 km/h (3 Bft) 97,87 %
29.03.2021 09:26 10,5 C 11,1 C 7,8 C 76 % 1029,1 hPa 0,0 l/m 2 min 0 min 230 W/m 9,7 km/h (2 Bft) 95,74 %
29.03.2021 09:28 10,6 C 11,1 C 7,8 C 76 % 1029,1 hPa 0,0 l/m 2 min 0 min 272 W/m 12,9 km/h (3 Bft) 100,00 %
29.03.2021 09:30 10,8 C 11,1 C 7,8 C 76 % 1029,1 hPa 0,0 l/m 2 min 0 min 316 W/m 16,1 km/h (3 Bft) 100,00 %
29.03.2021 09:32 10,9 C 11,7 C 8,4 C 75 % 1029,1 hPa 0,0 l/m 2 min 0 min 325 W/m 12,9 km/h (3 Bft) 100,00 %
29.03.2021 09:34 11,1 C 12,2 C 8,4 C 74 % 1029,1 hPa 0,0 l/m 2 min 0 min 328 W/m 16,1 km/h (3 Bft) 100,00 %
29.03.2021 09:38 11,5 C 13,9 C 8,4 C 73 % 1029,2 hPa 0,0 l/m 4 min 0 min 341 W/m 19,3 km/h (3 Bft) 100,00 %
29.03.2021 09:40 11,6 C 14,4 C 8,4 C 73 % 1029,1 hPa 0,0 l/m 2 min 0 min 337 W/m 19,3 km/h (3 Bft) 97,87 %
29.03.2021 09:42 11,8 C 13,9 C 8,4 C 72 % 1029,3 hPa 0,0 l/m 2 min 0 min 346 W/m 22,5 km/h (4 Bft) 95,74 %
29.03.2021 09:44 11,9 C 13,9 C 8,9 C 71 % 1029,2 hPa 0,0 l/m 2 min 0 min 351 W/m 25,7 km/h (4 Bft) 97,87 %
29.03.2021 09:46 12,0 C 13,3 C 8,9 C 71 % 1029,3 hPa 0,0 l/m 2 min 0 min 354 W/m 19,3 km/h (3 Bft) 95,65 %
29.03.2021 09:48 12,1 C 13,3 C 8,9 C 71 % 1029,3 hPa 0,0 l/m 2 min 0 min 368 W/m 16,1 km/h (3 Bft) 97,87 %
29.03.2021 09:50 12,3 C 13,3 C 9,5 C 70 % 1029,4 hPa 0,0 l/m 2 min 0 min 367 W/m 25,7 km/h (4 Bft) 93,62 %
29.03.2021 09:52 12,3 C 13,3 C 10,0 C 70 % 1029,4 hPa 0,0 l/m 2 min 0 min 384 W/m 12,9 km/h (3 Bft) 95,74 %
29.03.2021 09:54 12,4 C 13,9 C 10,6 C 70 % 1029,4 hPa 0,0 l/m 2 min 0 min 388 W/m 25,7 km/h (4 Bft) 95,74 %
29.03.2021 09:56 12,5 C 13,9 C 11,1 C 70 % 1029,4 hPa 0,0 l/m 2 min 0 min 411 W/m 25,7 km/h (4 Bft) 97,87 %
29.03.2021 09:58 12,6 C 14,4 C 11,7 C 69 % 1029,4 hPa 0,0 l/m 2 min 0 min 420 W/m 19,3 km/h (3 Bft) 95,65 %
29.03.2021 10:00 12,8 C 15,6 C 12,3 C 70 % 1029,4 hPa 0,0 l/m 2 min 0 min 427 W/m 16,1 km/h (3 Bft) 97,87 %
29.03.2021 10:02 12,9 C 16,7 C 12,8 C 69 % 1029,4 hPa 0,0 l/m 2 min 0 min 434 W/m 22,5 km/h (4 Bft) 97,87 %
29.03.2021 10:04 13,0 C 16,1 C 13,4 C 68 % 1029,4 hPa 0,0 l/m 2 min 0 min 428 W/m 29,0 km/h (5 Bft) 93,75 %
29.03.2021 10:06 13,0 C 16,1 C 13,4 C 68 % 1029,4 hPa 0,0 l/m 2 min 0 min 412 W/m 25,7 km/h (4 Bft) 97,87 %
29.03.2021 10:08 13,1 C 16,1 C 13,9 C 68 % 1029,3 hPa 0,0 l/m 2 min 0 min 405 W/m 16,1 km/h (3 Bft) 95,83 %
29.03.2021 10:10 13,2 C 16,1 C 14,5 C 68 % 1029,3 hPa 0,0 l/m 2 min 0 min 412 W/m 16,1 km/h (3 Bft) 95,65 %
29.03.2021 10:12 13,2 C 16,1 C 14,5 C 68 % 1029,3 hPa 0,0 l/m 2 min 0 min 401 W/m 16,1 km/h (3 Bft) 95,74 %
29.03.2021 10:14 13,3 C 16,7 C 15,0 C 68 % 1029,3 hPa 0,0 l/m 2 min 0 min 407 W/m 16,1 km/h (3 Bft) 100,00 %
29.03.2021 10:16 13,4 C 16,7 C 15,6 C 68 % 1029,3 hPa 0,0 l/m 2 min 0 min 402 W/m 22,5 km/h (4 Bft) 100,00 %
29.03.2021 10:18 13,4 C 17,2 C 15,6 C 68 % 1029,4 hPa 0,0 l/m 2 min 0 min 414 W/m 16,1 km/h (3 Bft) 97,87 %
29.03.2021 10:20 13,5 C 17,2 C 16,1 C 68 % 1029,3 hPa 0,0 l/m 2 min 0 min 417 W/m 22,5 km/h (4 Bft) 97,83 %
29.03.2021 10:22 13,5 C 16,7 C 15,6 C 67 % 1029,4 hPa 0,0 l/m 2 min 0 min 426 W/m 25,7 km/h (4 Bft) 100,00 %
29.03.2021 10:24 13,6 C 16,7 C 15,6 C 67 % 1029,4 hPa 0,0 l/m 2 min 0 min 438 W/m 19,3 km/h (3 Bft) 100,00 %
29.03.2021 10:26 13,6 C 16,7 C 15,0 C 67 % 1029,4 hPa 0,0 l/m 2 min 0 min 435 W/m 19,3 km/h (3 Bft) 97,87 %
29.03.2021 10:28 13,8 C 17,2 C 15,0 C 67 % 1029,5 hPa 0,0 l/m 2 min 0 min 387 W/m 12,9 km/h (3 Bft) 97,87 %
29.03.2021 10:30 13,8 C 16,7 C 14,5 C 66 % 1029,5 hPa 0,0 l/m 2 min 0 min 408 W/m 22,5 km/h (4 Bft) 100,00 %
29.03.2021 10:32 13,9 C 17,2 C 14,5 C 66 % 1029,4 hPa 0,0 l/m 2 min 0 min 454 W/m 6,4 km/h (2 Bft) 97,83 %
29.03.2021 10:34 14,0 C 17,2 C 14,5 C 66 % 1029,5 hPa 0,0 l/m 2 min 0 min 461 W/m 16,1 km/h (3 Bft) 97,87 %
29.03.2021 10:36 14,2 C 17,8 C 14,5 C 66 % 1029,5 hPa 0,0 l/m 2 min 0 min 413 W/m 29,0 km/h (5 Bft) 97,87 %
29.03.2021 10:38 14,2 C 17,2 C 15,0 C 65 % 1029,5 hPa 0,0 l/m 2 min 0 min 270 W/m 16,1 km/h (3 Bft) 97,78 %
29.03.2021 10:40 14,2 C 17,2 C 15,6 C 66 % 1029,5 hPa 0,0 l/m 2 min 0 min 268 W/m 16,1 km/h (3 Bft) 97,87 %
29.03.2021 10:42 14,2 C 17,2 C 15,6 C 64 % 1029,5 hPa 0,0 l/m 2 min 0 min 349 W/m 16,1 km/h (3 Bft) 97,87 %
29.03.2021 10:44 14,2 C 16,7 C 16,1 C 64 % 1029,5 hPa 0,0 l/m 2 min 0 min 384 W/m 19,3 km/h (3 Bft) 97,87 %
29.03.2021 10:46 14,2 C 17,2 C 16,7 C 65 % 1029,5 hPa 0,0 l/m 2 min 0 min 286 W/m 12,9 km/h (3 Bft) 95,65 %
29.03.2021 10:48 14,3 C 17,8 C 17,8 C 65 % 1029,5 hPa 0,0 l/m 2 min 0 min 344 W/m 6,4 km/h (2 Bft) 93,62 %
29.03.2021 10:50 14,5 C 18,3 C 18,4 C 64 % 1029,5 hPa 0,0 l/m 2 min 0 min 333 W/m 16,1 km/h (3 Bft) 97,87 %
29.03.2021 10:52 14,6 C 18,3 C 18,4 C 63 % 1029,5 hPa 0,0 l/m 2 min 0 min 460 W/m 19,3 km/h (3 Bft) 95,74 %
29.03.2021 10:54 14,7 C 17,8 C 18,9 C 63 % 1029,6 hPa 0,0 l/m 2 min 0 min 486 W/m 16,1 km/h (3 Bft) 97,87 %
29.03.2021 10:56 14,8 C 17,2 C 18,4 C 63 % 1029,6 hPa 0,0 l/m 2 min 0 min 484 W/m 19,3 km/h (3 Bft) 95,74 %
29.03.2021 10:58 14,9 C 16,7 C 17,3 C 61 % 1029,6 hPa 0,0 l/m 2 min 0 min 475 W/m 22,5 km/h (4 Bft) 97,83 %
29.03.2021 11:00 14,9 C 16,7 C 16,1 C 61 % 1029,5 hPa 0,0 l/m 2 min 0 min 475 W/m 22,5 km/h (4 Bft) 97,87 %
29.03.2021 11:02 14,9 C 16,7 C 15,0 C 60 % 1029,6 hPa 0,0 l/m 2 min 0 min 490 W/m 25,7 km/h (4 Bft) 97,87 %
29.03.2021 11:04 15,0 C 16,7 C 15,0 C 60 % 1029,6 hPa 0,0 l/m 2 min 0 min 382 W/m 6,4 km/h (2 Bft) 97,87 %
29.03.2021 11:06 15,0 C 16,7 C 15,0 C 60 % 1029,7 hPa 0,0 l/m 2 min 0 min 344 W/m 19,3 km/h (3 Bft) 97,87 %
29.03.2021 11:08 15,1 C 16,7 C 15,0 C 59 % 1029,7 hPa 0,0 l/m 2 min 0 min 494 W/m 29,0 km/h (5 Bft) 97,87 %
29.03.2021 11:10 15,1 C 16,7 C 14,5 C 58 % 1029,8 hPa 0,0 l/m 2 min 0 min 564 W/m 16,1 km/h (3 Bft) 95,83 %
29.03.2021 11:12 15,2 C 17,2 C 15,0 C 59 % 1029,7 hPa 0,0 l/m 2 min 0 min 581 W/m 16,1 km/h (3 Bft) 97,87 %
29.03.2021 11:14 15,3 C 17,8 C 15,6 C 59 % 1029,7 hPa 0,0 l/m 2 min 0 min 588 W/m 12,9 km/h (3 Bft) 95,74 %
29.03.2021 11:16 15,4 C 17,8 C 16,7 C 57 % 1029,7 hPa 0,0 l/m 2 min 0 min 592 W/m 19,3 km/h (3 Bft) 95,74 %
29.03.2021 11:18 15,5 C 17,8 C 17,8 C 57 % 1029,8 hPa 0,0 l/m 2 min 0 min 598 W/m 29,0 km/h (5 Bft) 95,74 %
29.03.2021 11:20 15,5 C 17,8 C 18,4 C 56 % 1029,7 hPa 0,0 l/m 2 min 0 min 604 W/m 22,5 km/h (4 Bft) 95,65 %
29.03.2021 11:22 15,5 C 17,8 C 17,8 C 56 % 1029,8 hPa 0,0 l/m 2 min 0 min 607 W/m 19,3 km/h (3 Bft) 95,74 %
29.03.2021 11:24 15,6 C 17,8 C 18,9 C 57 % 1029,8 hPa 0,0 l/m 2 min 0 min 557 W/m 16,1 km/h (3 Bft) 97,87 %
29.03.2021 11:26 15,6 C 18,3 C 19,5 C 58 % 1029,7 hPa 0,0 l/m 2 min 0 min 490 W/m 12,9 km/h (3 Bft) 89,36 %
29.03.2021 11:28 15,8 C 18,9 C 20,0 C 57 % 1029,7 hPa 0,0 l/m 2 min 0 min 488 W/m 16,1 km/h (3 Bft) 95,74 %
29.03.2021 11:30 15,9 C 18,3 C 20,6 C 56 % 1029,8 hPa 0,0 l/m 2 min 0 min 440 W/m 16,1 km/h (3 Bft) 95,74 %
29.03.2021 11:32 16,0 C 18,3 C 21,1 C 55 % 1029,7 hPa 0,0 l/m 2 min 0 min 425 W/m 19,3 km/h (3 Bft) 95,65 %
29.03.2021 11:34 16,1 C 18,3 C 22,3 C 54 % 1029,7 hPa 0,0 l/m 2 min 0 min 422 W/m 25,7 km/h (4 Bft) 95,74 %
29.03.2021 11:36 16,1 C 18,3 C 22,3 C 53 % 1029,8 hPa 0,0 l/m 2 min 0 min 290 W/m 22,5 km/h (4 Bft) 95,74 %
29.03.2021 11:38 16,1 C 18,3 C 22,8 C 53 % 1029,8 hPa 0,0 l/m 2 min 0 min 515 W/m 25,7 km/h (4 Bft) 95,74 %
29.03.2021 11:40 16,3 C 19,4 C 23,4 C 54 % 1029,8 hPa 0,0 l/m 2 min 0 min 626 W/m 6,4 km/h (2 Bft) 94,87 %
29.03.2021 11:42 16,3 C 20,0 C 24,5 C 54 % 1029,8 hPa 0,0 l/m 2 min 0 min 639 W/m 9,7 km/h (2 Bft) 95,74 %
29.03.2021 11:44 16,5 C 20,0 C 24,5 C 54 % 1029,8 hPa 0,0 l/m 2 min 0 min 645 W/m 29,0 km/h (5 Bft) 95,74 %
29.03.2021 11:46 16,6 C 20,0 C 24,5 C 53 % 1029,9 hPa 0,0 l/m 2 min 0 min 652 W/m 22,5 km/h (4 Bft) 95,65 %
29.03.2021 11:48 16,5 C 20,0 C 25,0 C 53 % 1029,8 hPa 0,0 l/m 2 min 0 min 655 W/m 12,9 km/h (3 Bft) 95,74 %
29.03.2021 11:50 16,6 C 20,0 C 25,0 C 53 % 1029,9 hPa 0,0 l/m 2 min 0 min 658 W/m 16,1 km/h (3 Bft) 95,74 %
29.03.2021 11:52 16,6 C 20,6 C 25,6 C 52 % 1029,9 hPa 0,0 l/m 2 min 0 min 664 W/m 6,4 km/h (2 Bft) 93,62 %
29.03.2021 11:54 16,8 C 20,6 C 25,6 C 53 % 1029,9 hPa 0,0 l/m 2 min 0 min 668 W/m 16,1 km/h (3 Bft) 97,87 %
29.03.2021 11:56 16,9 C 20,0 C 25,0 C 51 % 1030,0 hPa 0,0 l/m 2 min 0 min 671 W/m 22,5 km/h (4 Bft) 93,62 %
29.03.2021 11:58 16,9 C 20,0 C 24,5 C 50 % 1030,0 hPa 0,0 l/m 2 min 0 min 674 W/m 19,3 km/h (3 Bft) 95,65 %
29.03.2021 12:00 16,9 C 19,4 C 25,0 C 50 % 1029,9 hPa 0,0 l/m 2 min 0 min 676 W/m 29,0 km/h (5 Bft) 95,74 %
29.03.2021 12:02 17,0 C 20,0 C 25,0 C 51 % 1029,9 hPa 0,0 l/m 2 min 0 min 678 W/m 19,3 km/h (3 Bft) 92,45 %
29.03.2021 12:04 17,1 C 20,0 C 25,6 C 51 % 1029,9 hPa 0,0 l/m 2 min 0 min 680 W/m 12,9 km/h (3 Bft) 92,86 %
29.03.2021 12:08 17,3 C 21,1 C 26,1 C 51 % 1030,0 hPa 0,0 l/m 4 min 0 min 686 W/m 22,5 km/h (4 Bft) 92,55 %
29.03.2021 12:10 17,3 C 21,1 C 26,1 C 49 % 1030,1 hPa 0,0 l/m 2 min 0 min 689 W/m 19,3 km/h (3 Bft) 93,48 %
29.03.2021 12:12 17,3 C 21,1 C 26,1 C 50 % 1030,0 hPa 0,0 l/m 2 min 0 min 693 W/m 16,1 km/h (3 Bft) 93,62 %
29.03.2021 12:14 17,4 C 21,1 C 26,1 C 51 % 1030,0 hPa 0,0 l/m 2 min 0 min 698 W/m 12,9 km/h (3 Bft) 95,74 %
29.03.2021 12:16 17,5 C 21,1 C 26,1 C 50 % 1030,0 hPa 0,0 l/m 2 min 0 min 693 W/m 22,5 km/h (4 Bft) 95,74 %
29.03.2021 12:18 17,5 C 21,1 C 25,6 C 49 % 1030,1 hPa 0,0 l/m 2 min 0 min 697 W/m 22,5 km/h (4 Bft) 93,62 %
29.03.2021 12:20 17,5 C 21,7 C 25,6 C 50 % 1030,0 hPa 0,0 l/m 2 min 0 min 704 W/m 25,7 km/h (4 Bft) 95,74 %
29.03.2021 12:22 17,6 C 21,1 C 25,6 C 50 % 1030,0 hPa 0,0 l/m 2 min 0 min 706 W/m 22,5 km/h (4 Bft) 95,65 %
29.03.2021 12:24 17,6 C 21,1 C 25,6 C 49 % 1030,0 hPa 0,0 l/m 2 min 0 min 707 W/m 22,5 km/h (4 Bft) 93,62 %
29.03.2021 12:26 17,6 C 22,2 C 26,1 C 50 % 1030,0 hPa 0,0 l/m 2 min 0 min 711 W/m 16,1 km/h (3 Bft) 93,62 %
29.03.2021 12:28 17,8 C 22,8 C 26,7 C 48 % 1030,0 hPa 0,0 l/m 2 min 0 min 713 W/m 19,3 km/h (3 Bft) 95,74 %
29.03.2021 12:30 18,0 C 23,3 C 27,8 C 48 % 1030,0 hPa 0,0 l/m 2 min 0 min 713 W/m 16,1 km/h (3 Bft) 95,74 %
29.03.2021 12:32 18,1 C 22,8 C 27,8 C 48 % 1029,9 hPa 0,0 l/m 2 min 0 min 715 W/m 12,9 km/h (3 Bft) 93,48 %
29.03.2021 12:34 18,2 C 22,8 C 27,3 C 48 % 1030,0 hPa 0,0 l/m 2 min 0 min 718 W/m 16,1 km/h (3 Bft) 95,74 %
29.03.2021 12:36 18,3 C 23,3 C 27,8 C 49 % 1030,0 hPa 0,0 l/m 2 min 0 min 722 W/m 22,5 km/h (4 Bft) 93,62 %
29.03.2021 12:38 18,4 C 23,3 C 28,4 C 48 % 1030,0 hPa 0,0 l/m 2 min 0 min 724 W/m 29,0 km/h (5 Bft) 95,74 %
29.03.2021 12:40 18,5 C 23,3 C 28,4 C 47 % 1030,0 hPa 0,0 l/m 2 min 0 min 725 W/m 12,9 km/h (3 Bft) 95,74 %
29.03.2021 12:42 18,6 C 23,9 C 27,8 C 48 % 1030,1 hPa 0,0 l/m 2 min 0 min 728 W/m 12,9 km/h (3 Bft) 92,98 %
29.03.2021 12:44 18,7 C 23,9 C 28,4 C 46 % 1030,1 hPa 0,0 l/m 2 min 0 min 728 W/m 22,5 km/h (4 Bft) 95,74 %
29.03.2021 12:46 18,7 C 23,3 C 27,8 C 46 % 1030,1 hPa 0,0 l/m 2 min 0 min 727 W/m 29,0 km/h (5 Bft) 95,74 %
29.03.2021 12:48 18,6 C 22,8 C 27,3 C 46 % 1030,0 hPa 0,0 l/m 2 min 0 min 729 W/m 22,5 km/h (4 Bft) 97,87 %
29.03.2021 12:50 18,6 C 22,8 C 26,1 C 45 % 1030,0 hPa 0,0 l/m 2 min 0 min 729 W/m 16,1 km/h (3 Bft) 95,74 %
29.03.2021 12:52 18,6 C 23,9 C 26,7 C 47 % 1030,0 hPa 0,0 l/m 2 min 0 min 730 W/m 16,1 km/h (3 Bft) 95,74 %
29.03.2021 12:54 18,7 C 23,9 C 26,1 C 47 % 1030,0 hPa 0,0 l/m 2 min 0 min 729 W/m 19,3 km/h (3 Bft) 97,83 %
29.03.2021 12:56 18,8 C 23,9 C 25,6 C 46 % 1030,1 hPa 0,0 l/m 2 min 0 min 734 W/m 19,3 km/h (3 Bft) 95,74 %
29.03.2021 12:58 18,8 C 23,9 C 25,6 C 46 % 1030,0 hPa 0,0 l/m 2 min 0 min 738 W/m 12,9 km/h (3 Bft) 95,74 %
29.03.2021 13:00 18,9 C 23,9 C 25,0 C 45 % 1030,0 hPa 0,0 l/m 2 min 0 min 739 W/m 19,3 km/h (3 Bft) 95,74 %
29.03.2021 13:02 18,9 C 23,3 C 24,5 C 46 % 1030,0 hPa 0,0 l/m 2 min 0 min 739 W/m 16,1 km/h (3 Bft) 95,83 %
29.03.2021 13:04 19,0 C 23,9 C 23,4 C 46 % 1030,0 hPa 0,0 l/m 2 min 0 min 742 W/m 12,9 km/h (3 Bft) 97,87 %
29.03.2021 13:06 19,1 C 23,9 C 22,3 C 46 % 1030,0 hPa 0,0 l/m 2 min 0 min 743 W/m 12,9 km/h (3 Bft) 97,83 %
29.03.2021 13:08 19,1 C 23,3 C 21,7 C 45 % 1030,0 hPa 0,0 l/m 2 min 0 min 743 W/m 22,5 km/h (4 Bft) 100,00 %
29.03.2021 13:10 19,1 C 23,3 C 20,6 C 45 % 1029,9 hPa 0,0 l/m 2 min 0 min 744 W/m 19,3 km/h (3 Bft) 100,00 %
29.03.2021 13:12 19,1 C 23,3 C 19,5 C 46 % 1029,9 hPa 0,0 l/m 2 min 0 min 745 W/m 22,5 km/h (4 Bft) 97,87 %
29.03.2021 13:14 19,2 C 23,3 C 19,5 C 46 % 1029,9 hPa 0,0 l/m 2 min 0 min 745 W/m 12,9 km/h (3 Bft) 100,00 %
29.03.2021 13:16 19,3 C 23,3 C 20,6 C 45 % 1029,9 hPa 0,0 l/m 2 min 0 min 748 W/m 19,3 km/h (3 Bft) 100,00 %
29.03.2021 13:18 19,4 C 23,9 C 21,1 C 45 % 1029,9 hPa 0,0 l/m 2 min 0 min 749 W/m 12,9 km/h (3 Bft) 100,00 %
29.03.2021 13:20 19,4 C 23,9 C 21,1 C 45 % 1029,9 hPa 0,0 l/m 2 min 0 min 751 W/m 12,9 km/h (3 Bft) 100,00 %
29.03.2021 13:22 19,4 C 23,9 C 21,7 C 45 % 1029,9 hPa 0,0 l/m 2 min 0 min 751 W/m 9,7 km/h (2 Bft) 100,00 %
29.03.2021 13:24 19,5 C 25,0 C 22,3 C 46 % 1029,9 hPa 0,0 l/m 2 min 0 min 751 W/m 12,9 km/h (3 Bft) 100,00 %
29.03.2021 13:26 19,6 C 25,0 C 22,3 C 45 % 1029,8 hPa 0,0 l/m 2 min 0 min 751 W/m 19,3 km/h (3 Bft) 97,87 %
29.03.2021 13:28 19,7 C 24,4 C 21,7 C 44 % 1029,9 hPa 0,0 l/m 2 min 0 min 752 W/m 32,2 km/h (5 Bft) 100,00 %
29.03.2021 13:30 19,8 C 25,0 C 21,7 C 46 % 1029,9 hPa 0,0 l/m 2 min 0 min 752 W/m 12,9 km/h (3 Bft) 100,00 %
29.03.2021 13:32 19,9 C 25,0 C 21,1 C 46 % 1029,9 hPa 0,0 l/m 2 min 0 min 752 W/m 12,9 km/h (3 Bft) 100,00 %
29.03.2021 13:34 19,9 C 25,0 C 21,7 C 45 % 1029,9 hPa 0,0 l/m 2 min 0 min 752 W/m 16,1 km/h (3 Bft) 100,00 %
29.03.2021 13:36 19,9 C 25,0 C 22,8 C 45 % 1029,8 hPa 0,0 l/m 2 min 0 min 753 W/m 12,9 km/h (3 Bft) 100,00 %
29.03.2021 13:38 20,0 C 25,6 C 23,9 C 45 % 1029,8 hPa 0,0 l/m 2 min 0 min 753 W/m 22,5 km/h (4 Bft) 100,00 %
29.03.2021 13:40 20,0 C 25,0 C 22,8 C 43 % 1029,9 hPa 0,0 l/m 2 min 0 min 753 W/m 29,0 km/h (5 Bft) 100,00 %
29.03.2021 13:42 20,1 C 25,6 C 22,3 C 45 % 1029,8 hPa 0,0 l/m 2 min 0 min 754 W/m 12,9 km/h (3 Bft) 100,00 %
29.03.2021 13:44 20,1 C 25,6 C 21,1 C 43 % 1029,8 hPa 0,0 l/m 2 min 0 min 754 W/m 9,7 km/h (2 Bft) 95,45 %
29.03.2021 13:46 20,1 C 25,0 C 20,0 C 43 % 1029,9 hPa 0,0 l/m 2 min 0 min 755 W/m 12,9 km/h (3 Bft) 100,00 %
29.03.2021 13:48 20,1 C 25,6 C 19,5 C 43 % 1029,8 hPa 0,0 l/m 2 min 0 min 752 W/m 19,3 km/h (3 Bft) 100,00 %
29.03.2021 13:50 20,2 C 25,6 C 19,5 C 43 % 1029,8 hPa 0,0 l/m 2 min 0 min 751 W/m 22,5 km/h (4 Bft) 100,00 %
29.03.2021 13:52 20,3 C 25,6 C 18,9 C 42 % 1029,8 hPa 0,0 l/m 2 min 0 min 751 W/m 19,3 km/h (3 Bft) 100,00 %
29.03.2021 13:54 20,3 C 25,6 C 18,9 C 43 % 1029,7 hPa 0,0 l/m 2 min 0 min 753 W/m 12,9 km/h (3 Bft) 100,00 %
29.03.2021 13:56 20,1 C 25,0 C 18,4 C 42 % 1029,7 hPa 0,0 l/m 2 min 0 min 754 W/m 16,1 km/h (3 Bft) 100,00 %
29.03.2021 13:58 20,1 C 25,0 C 17,8 C 41 % 1029,7 hPa 0,0 l/m 2 min 0 min 752 W/m 25,7 km/h (4 Bft) 100,00 %
29.03.2021 14:00 20,1 C 24,4 C 17,8 C 41 % 1029,7 hPa 0,0 l/m 2 min 0 min 753 W/m 32,2 km/h (5 Bft) 100,00 %
29.03.2021 14:02 20,1 C 25,0 C 17,8 C 43 % 1029,7 hPa 0,0 l/m 2 min 0 min 751 W/m 16,1 km/h (3 Bft) 97,37 %
29.03.2021 14:04 20,1 C 25,0 C 17,8 C 41 % 1029,8 hPa 0,0 l/m 2 min 0 min 747 W/m 25,7 km/h (4 Bft) 100,00 %
29.03.2021 14:06 20,1 C 25,6 C 17,8 C 42 % 1029,7 hPa 0,0 l/m 2 min 0 min 744 W/m 16,1 km/h (3 Bft) 100,00 %
29.03.2021 14:08 20,3 C 25,6 C 17,8 C 42 % 1029,6 hPa 0,0 l/m 2 min 0 min 735 W/m 16,1 km/h (3 Bft) 100,00 %
29.03.2021 14:10 20,4 C 26,7 C 17,8 C 43 % 1029,6 hPa 0,0 l/m 2 min 0 min 735 W/m 12,9 km/h (3 Bft) 100,00 %
29.03.2021 14:12 20,6 C 26,1 C 17,8 C 42 % 1029,7 hPa 0,0 l/m 2 min 0 min 727 W/m 29,0 km/h (5 Bft) 100,00 %
29.03.2021 14:14 20,6 C 26,1 C 17,8 C 42 % 1029,7 hPa 0,0 l/m 2 min 0 min 724 W/m 12,9 km/h (3 Bft) 100,00 %
29.03.2021 14:16 20,6 C 25,0 C 17,8 C 40 % 1029,7 hPa 0,0 l/m 2 min 0 min 730 W/m 29,0 km/h (5 Bft) 100,00 %
29.03.2021 14:18 20,7 C 25,6 C 17,8 C 41 % 1029,7 hPa 0,0 l/m 2 min 0 min 742 W/m 22,5 km/h (4 Bft) 97,83 %
29.03.2021 14:20 20,8 C 25,6 C 17,8 C 41 % 1029,7 hPa 0,0 l/m 2 min 0 min 747 W/m 22,5 km/h (4 Bft) 100,00 %
29.03.2021 14:22 20,8 C 25,0 C 17,8 C 40 % 1029,9 hPa 0,0 l/m 2 min 0 min 742 W/m 32,2 km/h (5 Bft) 97,87 %
29.03.2021 14:24 20,8 C 26,1 C 17,8 C 42 % 1029,6 hPa 0,0 l/m 2 min 0 min 742 W/m 12,9 km/h (3 Bft) 97,87 %
29.03.2021 14:26 20,9 C 26,1 C 17,8 C 41 % 1029,6 hPa 0,0 l/m 2 min 0 min 742 W/m 16,1 km/h (3 Bft) 100,00 %
29.03.2021 14:28 20,9 C 26,7 C 18,4 C 40 % 1029,6 hPa 0,0 l/m 2 min 0 min 740 W/m 25,7 km/h (4 Bft) 97,87 %
29.03.2021 14:30 21,0 C 26,1 C 18,4 C 41 % 1029,6 hPa 0,0 l/m 2 min 0 min 738 W/m 16,1 km/h (3 Bft) 97,83 %
29.03.2021 14:32 21,0 C 27,2 C 18,4 C 41 % 1029,7 hPa 0,0 l/m 2 min 0 min 737 W/m 25,7 km/h (4 Bft) 97,87 %
29.03.2021 14:34 21,0 C 26,7 C 18,4 C 40 % 1029,6 hPa 0,0 l/m 2 min 0 min 735 W/m 19,3 km/h (3 Bft) 97,87 %
29.03.2021 14:36 21,0 C 26,1 C 17,8 C 41 % 1029,6 hPa 0,0 l/m 2 min 0 min 733 W/m 19,3 km/h (3 Bft) 97,87 %
29.03.2021 14:38 21,0 C 26,1 C 17,8 C 41 % 1029,6 hPa 0,0 l/m 2 min 0 min 729 W/m 19,3 km/h (3 Bft) 95,74 %
29.03.2021 14:40 21,0 C 26,1 C 17,8 C 40 % 1029,6 hPa 0,0 l/m 2 min 0 min 729 W/m 25,7 km/h (4 Bft) 95,74 %
29.03.2021 14:42 21,0 C 26,1 C 17,8 C 41 % 1029,6 hPa 0,0 l/m 2 min 0 min 728 W/m 19,3 km/h (3 Bft) 93,48 %
29.03.2021 14:44 21,3 C 27,2 C 18,4 C 43 % 1029,5 hPa 0,0 l/m 2 min 0 min 726 W/m 22,5 km/h (4 Bft) 95,74 %
29.03.2021 14:46 21,2 C 25,6 C 17,8 C 40 % 1029,6 hPa 0,0 l/m 2 min 0 min 722 W/m 29,0 km/h (5 Bft) 94,64 %
29.03.2021 14:48 21,0 C 25,0 C 17,8 C 39 % 1029,6 hPa 0,0 l/m 2 min 0 min 719 W/m 35,4 km/h (5 Bft) 95,74 %
29.03.2021 14:50 20,9 C 25,0 C 17,8 C 40 % 1029,5 hPa 0,0 l/m 2 min 0 min 719 W/m 35,4 km/h (5 Bft) 93,62 %
29.03.2021 14:52 20,8 C 25,0 C 17,8 C 40 % 1029,5 hPa 0,0 l/m 2 min 0 min 716 W/m 19,3 km/h (3 Bft) 95,65 %
29.03.2021 14:54 20,8 C 25,6 C 17,8 C 42 % 1029,5 hPa 0,0 l/m 2 min 0 min 713 W/m 25,7 km/h (4 Bft) 95,74 %
29.03.2021 14:56 20,9 C 26,7 C 17,8 C 41 % 1029,5 hPa 0,0 l/m 2 min 0 min 710 W/m 19,3 km/h (3 Bft) 93,62 %
29.03.2021 14:58 21,0 C 27,2 C 17,8 C 41 % 1029,5 hPa 0,0 l/m 2 min 0 min 711 W/m 16,1 km/h (3 Bft) 95,74 %
29.03.2021 15:00 21,1 C 26,7 C 17,8 C 40 % 1029,5 hPa 0,0 l/m 2 min 0 min 707 W/m 22,5 km/h (4 Bft) 95,74 %
29.03.2021 15:02 21,1 C 26,1 C 17,8 C 40 % 1029,5 hPa 0,0 l/m 2 min 0 min 707 W/m 32,2 km/h (5 Bft) 95,65 %
29.03.2021 15:04 21,3 C 26,1 C 17,8 C 40 % 1029,5 hPa 0,0 l/m 2 min 0 min 704 W/m 19,3 km/h (3 Bft) 95,24 %
29.03.2021 15:06 21,4 C 26,7 C 18,4 C 40 % 1029,5 hPa 0,0 l/m 2 min 0 min 698 W/m 22,5 km/h (4 Bft) 95,74 %
29.03.2021 15:08 21,4 C 27,2 C 18,4 C 40 % 1029,5 hPa 0,0 l/m 2 min 0 min 695 W/m 16,1 km/h (3 Bft) 95,74 %
29.03.2021 15:10 21,5 C 28,3 C 18,4 C 42 % 1029,5 hPa 0,0 l/m 2 min 0 min 693 W/m 16,1 km/h (3 Bft) 95,74 %
29.03.2021 15:12 21,4 C 26,7 C 17,8 C 40 % 1029,5 hPa 0,0 l/m 2 min 0 min 691 W/m 19,3 km/h (3 Bft) 95,74 %
29.03.2021 15:14 21,4 C 27,2 C 17,8 C 41 % 1029,4 hPa 0,0 l/m 2 min 0 min 689 W/m 19,3 km/h (3 Bft) 93,62 %
29.03.2021 15:16 21,4 C 26,7 C 18,4 C 40 % 1029,4 hPa 0,0 l/m 2 min 0 min 687 W/m 22,5 km/h (4 Bft) 93,48 %
29.03.2021 15:18 21,4 C 26,1 C 17,8 C 39 % 1029,5 hPa 0,0 l/m 2 min 0 min 685 W/m 35,4 km/h (5 Bft) 95,74 %
29.03.2021 15:20 21,4 C 26,1 C 18,4 C 40 % 1029,4 hPa 0,0 l/m 2 min 0 min 680 W/m 22,5 km/h (4 Bft) 95,74 %
29.03.2021 15:22 21,4 C 26,7 C 18,4 C 39 % 1029,5 hPa 0,0 l/m 2 min 0 min 677 W/m 32,2 km/h (5 Bft) 97,87 %
29.03.2021 15:24 21,4 C 25,6 C 17,8 C 39 % 1029,4 hPa 0,0 l/m 2 min 0 min 674 W/m 29,0 km/h (5 Bft) 95,74 %
29.03.2021 15:26 21,4 C 25,6 C 17,8 C 39 % 1029,5 hPa 0,0 l/m 2 min 0 min 672 W/m 25,7 km/h (4 Bft) 100,00 %
29.03.2021 15:28 21,4 C 26,1 C 17,8 C 39 % 1029,4 hPa 0,0 l/m 2 min 0 min 668 W/m 29,0 km/h (5 Bft) 100,00 %
29.03.2021 15:30 21,3 C 25,6 C 17,8 C 39 % 1029,5 hPa 0,0 l/m 2 min 0 min 663 W/m 25,7 km/h (4 Bft) 100,00 %
29.03.2021 15:32 21,3 C 26,1 C 17,8 C 39 % 1029,5 hPa 0,0 l/m 2 min 0 min 658 W/m 16,1 km/h (3 Bft) 93,62 %
29.03.2021 15:34 21,3 C 26,7 C 17,8 C 40 % 1029,4 hPa 0,0 l/m 2 min 0 min 655 W/m 22,5 km/h (4 Bft) 97,87 %
29.03.2021 15:36 21,3 C 26,7 C 17,8 C 40 % 1029,4 hPa 0,0 l/m 2 min 0 min 654 W/m 16,1 km/h (3 Bft) 97,87 %
29.03.2021 15:38 21,4 C 27,2 C 17,8 C 40 % 1029,5 hPa 0,0 l/m 2 min 0 min 650 W/m 12,9 km/h (3 Bft) 97,87 %
29.03.2021 15:40 21,4 C 27,2 C 17,8 C 40 % 1029,4 hPa 0,0 l/m 2 min 0 min 646 W/m 9,7 km/h (2 Bft) 97,83 %
29.03.2021 15:42 21,5 C 28,3 C 17,8 C 41 % 1029,4 hPa 0,0 l/m 2 min 0 min 644 W/m 12,9 km/h (3 Bft) 95,74 %
29.03.2021 15:44 21,5 C 27,8 C 18,4 C 40 % 1029,4 hPa 0,0 l/m 2 min 0 min 642 W/m 22,5 km/h (4 Bft) 93,62 %
29.03.2021 15:46 21,6 C 26,7 C 17,8 C 39 % 1029,3 hPa 0,0 l/m 2 min 0 min 636 W/m 29,0 km/h (5 Bft) 97,87 %
29.03.2021 15:48 21,6 C 27,2 C 17,8 C 39 % 1029,4 hPa 0,0 l/m 2 min 0 min 632 W/m 12,9 km/h (3 Bft) 97,87 %
29.03.2021 15:50 21,6 C 26,7 C 17,8 C 38 % 1029,4 hPa 0,0 l/m 2 min 0 min 629 W/m 19,3 km/h (3 Bft) 93,62 %
29.03.2021 15:52 21,6 C 27,2 C 18,4 C 38 % 1029,4 hPa 0,0 l/m 2 min 0 min 625 W/m 38,6 km/h (5 Bft) 97,83 %
29.03.2021 15:54 21,7 C 28,3 C 18,4 C 40 % 1029,3 hPa 0,0 l/m 2 min 0 min 620 W/m 9,7 km/h (2 Bft) 95,74 %
29.03.2021 15:56 21,8 C 28,3 C 18,4 C 39 % 1029,3 hPa 0,0 l/m 2 min 0 min 614 W/m 19,3 km/h (3 Bft) 93,62 %
29.03.2021 15:58 21,9 C 27,8 C 18,4 C 38 % 1029,4 hPa 0,0 l/m 2 min 0 min 612 W/m 25,7 km/h (4 Bft) 97,87 %
29.03.2021 16:00 21,8 C 27,8 C 18,4 C 38 % 1029,4 hPa 0,0 l/m 2 min 0 min 610 W/m 25,7 km/h (4 Bft) 100,00 %
29.03.2021 16:02 21,8 C 27,8 C 18,4 C 38 % 1029,4 hPa 0,0 l/m 2 min 0 min 606 W/m 25,7 km/h (4 Bft) 97,87 %
29.03.2021 16:04 21,9 C 28,3 C 18,4 C 38 % 1029,3 hPa 0,0 l/m 2 min 0 min 601 W/m 16,1 km/h (3 Bft) 95,65 %
29.03.2021 16:06 21,9 C 29,4 C 18,4 C 38 % 1029,3 hPa 0,0 l/m 2 min 0 min 598 W/m 16,1 km/h (3 Bft) 93,62 %
29.03.2021 16:08 21,9 C 29,4 C 18,4 C 38 % 1029,4 hPa 0,0 l/m 2 min 0 min 594 W/m 25,7 km/h (4 Bft) 95,74 %
29.03.2021 16:10 21,9 C 28,9 C 18,4 C 37 % 1029,4 hPa 0,0 l/m 2 min 0 min 588 W/m 29,0 km/h (5 Bft) 97,87 %
29.03.2021 16:12 22,0 C 28,9 C 18,9 C 38 % 1029,4 hPa 0,0 l/m 2 min 0 min 584 W/m 16,1 km/h (3 Bft) 97,87 %
29.03.2021 16:14 22,0 C 28,9 C 18,9 C 37 % 1029,4 hPa 0,0 l/m 2 min 0 min 580 W/m 12,9 km/h (3 Bft) 95,74 %
29.03.2021 16:16 22,0 C 28,9 C 18,4 C 38 % 1029,4 hPa 0,0 l/m 2 min 0 min 578 W/m 12,9 km/h (3 Bft) 95,65 %
29.03.2021 16:18 22,0 C 28,9 C 18,4 C 38 % 1029,4 hPa 0,0 l/m 2 min 0 min 575 W/m 12,9 km/h (3 Bft) 95,74 %
29.03.2021 16:20 22,0 C 28,9 C 18,4 C 36 % 1029,4 hPa 0,0 l/m 2 min 0 min 570 W/m 16,1 km/h (3 Bft) 97,87 %
29.03.2021 16:22 22,0 C 28,9 C 18,9 C 36 % 1029,4 hPa 0,0 l/m 2 min 0 min 564 W/m 19,3 km/h (3 Bft) 97,87 %
29.03.2021 16:24 22,1 C 28,9 C 19,5 C 37 % 1029,4 hPa 0,0 l/m 2 min 0 min 561 W/m 12,9 km/h (3 Bft) 97,87 %
29.03.2021 16:26 22,1 C 28,9 C 19,5 C 36 % 1029,4 hPa 0,0 l/m 2 min 0 min 557 W/m 12,9 km/h (3 Bft) 97,87 %
29.03.2021 16:28 22,1 C 28,9 C 19,5 C 35 % 1029,3 hPa 0,0 l/m 2 min 0 min 553 W/m 19,3 km/h (3 Bft) 97,83 %
29.03.2021 16:30 22,1 C 28,3 C 18,9 C 35 % 1029,3 hPa 0,0 l/m 2 min 0 min 547 W/m 22,5 km/h (4 Bft) 95,74 %
29.03.2021 16:32 22,1 C 28,9 C 19,5 C 36 % 1029,3 hPa 0,0 l/m 2 min 0 min 541 W/m 12,9 km/h (3 Bft) 100,00 %
29.03.2021 16:34 22,1 C 28,9 C 19,5 C 36 % 1029,3 hPa 0,0 l/m 2 min 0 min 537 W/m 16,1 km/h (3 Bft) 100,00 %
29.03.2021 16:36 22,1 C 29,4 C 19,5 C 36 % 1029,3 hPa 0,0 l/m 2 min 0 min 531 W/m 12,9 km/h (3 Bft) 100,00 %
29.03.2021 16:38 22,1 C 28,9 C 19,5 C 36 % 1029,3 hPa 0,0 l/m 2 min 0 min 528 W/m 19,3 km/h (3 Bft) 100,00 %
29.03.2021 16:40 22,1 C 28,3 C 18,9 C 36 % 1029,2 hPa 0,0 l/m 2 min 0 min 525 W/m 12,9 km/h (3 Bft) 97,83 %
29.03.2021 16:42 22,0 C 28,3 C 18,9 C 36 % 1029,2 hPa 0,0 l/m 2 min 0 min 519 W/m 12,9 km/h (3 Bft) 100,00 %
29.03.2021 16:44 22,1 C 28,9 C 19,5 C 37 % 1029,2 hPa 0,0 l/m 2 min 0 min 514 W/m 16,1 km/h (3 Bft) 100,00 %
29.03.2021 16:46 22,1 C 28,3 C 19,5 C 36 % 1029,2 hPa 0,0 l/m 2 min 0 min 508 W/m 19,3 km/h (3 Bft) 100,00 %
29.03.2021 16:48 22,0 C 27,8 C 18,9 C 36 % 1029,3 hPa 0,0 l/m 2 min 0 min 503 W/m 22,5 km/h (4 Bft) 100,00 %
29.03.2021 16:50 22,0 C 28,3 C 18,9 C 36 % 1029,3 hPa 0,0 l/m 2 min 0 min 498 W/m 12,9 km/h (3 Bft) 100,00 %
29.03.2021 16:52 22,0 C 28,3 C 18,9 C 36 % 1029,3 hPa 0,0 l/m 2 min 0 min 494 W/m 16,1 km/h (3 Bft) 100,00 %
29.03.2021 16:54 22,0 C 27,8 C 18,9 C 35 % 1029,3 hPa 0,0 l/m 2 min 0 min 489 W/m 35,4 km/h (5 Bft) 100,00 %
29.03.2021 16:56 21,9 C 27,2 C 18,9 C 35 % 1029,3 hPa 0,0 l/m 2 min 0 min 482 W/m 41,8 km/h (6 Bft) 100,00 %
29.03.2021 16:58 21,9 C 27,2 C 18,9 C 35 % 1029,3 hPa 0,0 l/m 2 min 0 min 475 W/m 22,5 km/h (4 Bft) 100,00 %
29.03.2021 17:00 21,8 C 26,7 C 18,4 C 35 % 1029,3 hPa 0,0 l/m 2 min 0 min 470 W/m 12,9 km/h (3 Bft) 100,00 %
29.03.2021 17:02 21,7 C 26,7 C 18,4 C 35 % 1029,3 hPa 0,0 l/m 2 min 0 min 466 W/m 16,1 km/h (3 Bft) 100,00 %
29.03.2021 17:04 21,6 C 27,2 C 18,4 C 36 % 1029,3 hPa 0,0 l/m 2 min 0 min 459 W/m 12,9 km/h (3 Bft) 100,00 %
29.03.2021 17:06 21,6 C 27,8 C 18,4 C 37 % 1029,3 hPa 0,0 l/m 2 min 0 min 453 W/m 19,3 km/h (3 Bft) 100,00 %
29.03.2021 17:08 21,7 C 27,8 C 18,4 C 38 % 1029,3 hPa 0,0 l/m 2 min 0 min 447 W/m 9,7 km/h (2 Bft) 100,00 %
29.03.2021 17:10 21,8 C 27,8 C 18,4 C 38 % 1029,3 hPa 0,0 l/m 2 min 0 min 442 W/m 16,1 km/h (3 Bft) 100,00 %
29.03.2021 17:12 21,8 C 27,8 C 18,4 C 36 % 1029,2 hPa 0,0 l/m 2 min 0 min 437 W/m 12,9 km/h (3 Bft) 97,87 %
29.03.2021 17:14 21,8 C 27,8 C 18,4 C 36 % 1029,3 hPa 0,0 l/m 2 min 0 min 433 W/m 16,1 km/h (3 Bft) 97,87 %
29.03.2021 17:16 21,8 C 27,8 C 18,4 C 36 % 1029,3 hPa 0,0 l/m 2 min 0 min 429 W/m 16,1 km/h (3 Bft) 100,00 %
29.03.2021 17:18 21,8 C 27,8 C 18,4 C 35 % 1029,3 hPa 0,0 l/m 2 min 0 min 420 W/m 16,1 km/h (3 Bft) 95,74 %
29.03.2021 17:20 21,8 C 27,8 C 17,8 C 35 % 1029,3 hPa 0,0 l/m 2 min 0 min 415 W/m 12,9 km/h (3 Bft) 97,87 %
29.03.2021 17:22 21,8 C 27,8 C 17,8 C 36 % 1029,3 hPa 0,0 l/m 2 min 0 min 407 W/m 12,9 km/h (3 Bft) 97,87 %
29.03.2021 17:24 21,8 C 27,2 C 17,8 C 36 % 1029,3 hPa 0,0 l/m 2 min 0 min 403 W/m 22,5 km/h (4 Bft) 97,87 %
29.03.2021 17:26 21,8 C 27,2 C 17,8 C 36 % 1029,3 hPa 0,0 l/m 2 min 0 min 399 W/m 16,1 km/h (3 Bft) 95,74 %
29.03.2021 17:28 21,8 C 27,2 C 17,8 C 36 % 1029,3 hPa 0,0 l/m 2 min 0 min 391 W/m 16,1 km/h (3 Bft) 95,65 %
29.03.2021 17:30 21,8 C 26,7 C 17,8 C 36 % 1029,3 hPa 0,0 l/m 2 min 0 min 384 W/m 22,5 km/h (4 Bft) 93,62 %
29.03.2021 17:32 21,7 C 26,7 C 17,8 C 36 % 1029,3 hPa 0,0 l/m 2 min 0 min 379 W/m 19,3 km/h (3 Bft) 95,74 %
29.03.2021 17:34 21,7 C 27,2 C 17,8 C 37 % 1029,2 hPa 0,0 l/m 2 min 0 min 373 W/m 16,1 km/h (3 Bft) 93,62 %
29.03.2021 17:36 21,7 C 26,7 C 17,8 C 36 % 1029,3 hPa 0,0 l/m 2 min 0 min 368 W/m 12,9 km/h (3 Bft) 93,62 %
29.03.2021 17:38 21,6 C 27,2 C 17,8 C 36 % 1029,3 hPa 0,0 l/m 2 min 0 min 363 W/m 12,9 km/h (3 Bft) 95,74 %
29.03.2021 17:40 21,6 C 26,7 C 17,8 C 36 % 1029,3 hPa 0,0 l/m 2 min 0 min 357 W/m 12,9 km/h (3 Bft) 95,65 %
29.03.2021 17:42 21,6 C 26,7 C 17,8 C 35 % 1029,4 hPa 0,0 l/m 2 min 0 min 352 W/m 16,1 km/h (3 Bft) 93,62 %
29.03.2021 17:44 21,6 C 26,1 C 17,8 C 35 % 1029,3 hPa 0,0 l/m 2 min 0 min 347 W/m 12,9 km/h (3 Bft) 95,74 %
29.03.2021 17:46 21,5 C 26,7 C 18,4 C 35 % 1029,3 hPa 0,0 l/m 2 min 0 min 343 W/m 6,4 km/h (2 Bft) 95,74 %
29.03.2021 17:48 21,6 C 26,7 C 18,4 C 35 % 1029,3 hPa 0,0 l/m 2 min 0 min 338 W/m 16,1 km/h (3 Bft) 95,74 %
29.03.2021 17:50 21,6 C 26,7 C 18,4 C 35 % 1029,3 hPa 0,0 l/m 2 min 0 min 331 W/m 12,9 km/h (3 Bft) 95,74 %
29.03.2021 17:52 21,6 C 26,7 C 18,4 C 35 % 1029,3 hPa 0,0 l/m 2 min 0 min 324 W/m 16,1 km/h (3 Bft) 95,24 %
29.03.2021 17:54 21,5 C 25,6 C 18,4 C 35 % 1029,3 hPa 0,0 l/m 2 min 0 min 318 W/m 16,1 km/h (3 Bft) 97,87 %
29.03.2021 17:56 21,5 C 25,6 C 17,8 C 34 % 1029,3 hPa 0,0 l/m 2 min 0 min 311 W/m 16,1 km/h (3 Bft) 95,74 %
29.03.2021 17:58 21,4 C 25,6 C 17,8 C 35 % 1029,3 hPa 0,0 l/m 2 min 0 min 305 W/m 12,9 km/h (3 Bft) 97,87 %
29.03.2021 18:00 21,4 C 25,6 C 17,8 C 35 % 1029,3 hPa 0,0 l/m 2 min 0 min 297 W/m 19,3 km/h (3 Bft) 97,87 %
29.03.2021 18:02 21,4 C 26,1 C 17,8 C 36 % 1029,3 hPa 0,0 l/m 2 min 0 min 289 W/m 6,4 km/h (2 Bft) 97,92 %
29.03.2021 18:04 21,4 C 25,0 C 17,8 C 35 % 1029,4 hPa 0,0 l/m 2 min 0 min 280 W/m 19,3 km/h (3 Bft) 97,83 %
29.03.2021 18:08 21,3 C 25,0 C 17,8 C 35 % 1029,3 hPa 0,0 l/m 4 min 0 min 270 W/m 12,9 km/h (3 Bft) 95,74 %
29.03.2021 18:10 21,3 C 25,0 C 17,8 C 36 % 1029,3 hPa 0,0 l/m 2 min 0 min 259 W/m 6,4 km/h (2 Bft) 97,87 %
29.03.2021 18:12 21,3 C 25,0 C 17,8 C 36 % 1029,4 hPa 0,0 l/m 2 min 0 min 253 W/m 12,9 km/h (3 Bft) 97,87 %
29.03.2021 18:14 21,2 C 24,4 C 17,8 C 36 % 1029,3 hPa 0,0 l/m 2 min 0 min 246 W/m 16,1 km/h (3 Bft) 97,87 %
29.03.2021 18:16 21,2 C 25,0 C 17,8 C 37 % 1029,3 hPa 0,0 l/m 2 min 0 min 239 W/m 19,3 km/h (3 Bft) 97,83 %
29.03.2021 18:18 21,1 C 24,4 C 17,8 C 36 % 1029,3 hPa 0,0 l/m 2 min 0 min 231 W/m 6,4 km/h (2 Bft) 97,87 %
29.03.2021 18:20 21,2 C 25,0 C 17,8 C 37 % 1029,3 hPa 0,0 l/m 2 min 0 min 221 W/m 9,7 km/h (2 Bft) 97,87 %
29.03.2021 18:22 21,1 C 25,0 C 17,8 C 36 % 1029,3 hPa 0,0 l/m 2 min 0 min 216 W/m 16,1 km/h (3 Bft) 97,87 %
29.03.2021 18:24 21,1 C 25,0 C 17,8 C 36 % 1029,4 hPa 0,0 l/m 2 min 0 min 208 W/m 12,9 km/h (3 Bft) 100,00 %
29.03.2021 18:26 21,0 C 25,0 C 17,8 C 37 % 1029,3 hPa 0,0 l/m 2 min 0 min 201 W/m 12,9 km/h (3 Bft) 97,87 %
29.03.2021 18:28 21,0 C 25,0 C 17,8 C 37 % 1029,3 hPa 0,0 l/m 2 min 0 min 195 W/m 12,9 km/h (3 Bft) 97,83 %
29.03.2021 18:30 20,9 C 25,0 C 17,8 C 36 % 1029,3 hPa 0,0 l/m 2 min 0 min 187 W/m 12,9 km/h (3 Bft) 97,87 %
29.03.2021 18:32 20,9 C 25,0 C 17,3 C 37 % 1029,5 hPa 0,0 l/m 2 min 0 min 179 W/m 16,1 km/h (3 Bft) 100,00 %
29.03.2021 18:34 20,9 C 25,0 C 17,8 C 37 % 1029,4 hPa 0,0 l/m 2 min 0 min 171 W/m 12,9 km/h (3 Bft) 100,00 %
29.03.2021 18:36 20,9 C 25,0 C 17,8 C 37 % 1029,4 hPa 0,0 l/m 2 min 0 min 164 W/m 12,9 km/h (3 Bft) 100,00 %
29.03.2021 18:38 20,9 C 25,0 C 17,3 C 38 % 1029,5 hPa 0,0 l/m 2 min 0 min 157 W/m 3,2 km/h (1 Bft) 97,87 %
29.03.2021 18:40 20,9 C 25,0 C 17,3 C 38 % 1029,5 hPa 0,0 l/m 2 min 0 min 150 W/m 6,4 km/h (2 Bft) 100,00 %
29.03.2021 18:42 20,9 C 25,0 C 17,3 C 38 % 1029,5 hPa 0,0 l/m 2 min 0 min 143 W/m 6,4 km/h (2 Bft) 97,87 %
29.03.2021 18:44 20,9 C 24,4 C 17,3 C 38 % 1029,5 hPa 0,0 l/m 2 min 0 min 136 W/m 6,4 km/h (2 Bft) 100,00 %
29.03.2021 18:46 20,9 C 23,9 C 17,3 C 38 % 1029,5 hPa 0,0 l/m 2 min 0 min 130 W/m 6,4 km/h (2 Bft) 100,00 %
29.03.2021 18:48 20,9 C 23,9 C 17,3 C 38 % 1029,5 hPa 0,0 l/m 2 min 0 min 123 W/m 6,4 km/h (2 Bft) 97,87 %
29.03.2021 18:50 20,9 C 23,9 C 17,3 C 39 % 1029,5 hPa 0,0 l/m 2 min 0 min 117 W/m 9,7 km/h (2 Bft) 100,00 %
29.03.2021 18:52 20,9 C 23,3 C 17,3 C 38 % 1029,5 hPa 0,0 l/m 2 min 0 min 111 W/m 16,1 km/h (3 Bft) 97,83 %
29.03.2021 18:54 20,8 C 23,3 C 17,3 C 38 % 1029,5 hPa 0,0 l/m 2 min 0 min 104 W/m 12,9 km/h (3 Bft) 95,56 %
29.03.2021 18:56 20,8 C 22,8 C 17,3 C 38 % 1029,5 hPa 0,0 l/m 2 min 0 min 98 W/m 6,4 km/h (2 Bft) 97,87 %
29.03.2021 18:58 20,7 C 22,2 C 16,7 C 38 % 1029,5 hPa 0,0 l/m 2 min 0 min 92 W/m 12,9 km/h (3 Bft) 97,87 %
29.03.2021 19:00 20,6 C 22,2 C 16,7 C 39 % 1029,5 hPa 0,0 l/m 2 min 0 min 87 W/m 6,4 km/h (2 Bft) 97,87 %
29.03.2021 19:02 20,5 C 21,1 C 16,7 C 38 % 1029,5 hPa 0,0 l/m 2 min 0 min 78 W/m 6,4 km/h (2 Bft) 97,92 %
29.03.2021 19:04 20,5 C 20,0 C 16,7 C 38 % 1029,5 hPa 0,0 l/m 0 min 0 min 46 W/m 12,9 km/h (3 Bft) 95,65 %
29.03.2021 19:06 20,4 C 20,0 C 16,1 C 39 % 1029,5 hPa 0,0 l/m 0 min 0 min 35 W/m 9,7 km/h (2 Bft) 97,87 %
29.03.2021 19:08 20,4 C 19,4 C 16,1 C 39 % 1029,5 hPa 0,0 l/m 0 min 0 min 33 W/m 12,9 km/h (3 Bft) 97,87 %
29.03.2021 19:10 20,3 C 19,4 C 16,1 C 39 % 1029,5 hPa 0,0 l/m 0 min 0 min 33 W/m 9,7 km/h (2 Bft) 95,74 %
29.03.2021 19:12 20,1 C 18,9 C 16,1 C 39 % 1029,6 hPa 0,0 l/m 0 min 0 min 32 W/m 12,9 km/h (3 Bft) 97,87 %
29.03.2021 19:14 20,0 C 18,9 C 16,1 C 39 % 1029,6 hPa 0,0 l/m 0 min 0 min 32 W/m 3,2 km/h (1 Bft) 97,87 %
29.03.2021 19:16 20,0 C 18,9 C 15,6 C 39 % 1029,5 hPa 0,0 l/m 0 min 0 min 30 W/m 6,4 km/h (2 Bft) 95,65 %
29.03.2021 19:18 19,9 C 18,9 C 15,6 C 39 % 1029,6 hPa 0,0 l/m 0 min 0 min 30 W/m 12,9 km/h (3 Bft) 97,87 %
29.03.2021 19:20 19,8 C 18,9 C 15,6 C 39 % 1029,6 hPa 0,0 l/m 0 min 0 min 28 W/m 6,4 km/h (2 Bft) 97,87 %
29.03.2021 19:22 19,7 C 18,3 C 15,6 C 40 % 1029,6 hPa 0,0 l/m 0 min 0 min 26 W/m 3,2 km/h (1 Bft) 97,87 %
29.03.2021 19:24 19,6 C 18,3 C 15,6 C 40 % 1029,6 hPa 0,0 l/m 0 min 0 min 26 W/m 6,4 km/h (2 Bft) 97,87 %
29.03.2021 19:26 19,5 C 18,3 C 15,0 C 41 % 1029,6 hPa 0,0 l/m 0 min 0 min 25 W/m 3,2 km/h (1 Bft) 97,92 %
29.03.2021 19:28 19,4 C 18,3 C 15,0 C 41 % 1029,6 hPa 0,0 l/m 0 min 0 min 25 W/m 6,4 km/h (2 Bft) 97,83 %
29.03.2021 19:30 19,4 C 17,8 C 15,0 C 41 % 1029,6 hPa 0,0 l/m 0 min 0 min 23 W/m 3,2 km/h (1 Bft) 97,87 %
29.03.2021 19:32 19,3 C 17,8 C 15,0 C 41 % 1029,6 hPa 0,0 l/m 0 min 0 min 22 W/m 3,2 km/h (1 Bft) 97,87 %
29.03.2021 19:34 19,2 C 17,8 C 14,5 C 42 % 1029,6 hPa 0,0 l/m 0 min 0 min 21 W/m 3,2 km/h (1 Bft) 95,74 %
29.03.2021 19:36 19,1 C 17,8 C 14,5 C 42 % 1029,6 hPa 0,0 l/m 0 min 0 min 20 W/m 3,2 km/h (1 Bft) 97,87 %
29.03.2021 19:38 19,1 C 17,2 C 14,5 C 42 % 1029,6 hPa 0,0 l/m 0 min 0 min 19 W/m 3,2 km/h (1 Bft) 100,00 %
29.03.2021 19:40 19,0 C 17,2 C 14,5 C 41 % 1029,6 hPa 0,0 l/m 0 min 0 min 18 W/m 6,4 km/h (2 Bft) 97,92 %
29.03.2021 19:42 18,9 C 17,2 C 14,5 C 42 % 1029,6 hPa 0,0 l/m 0 min 0 min 17 W/m 3,2 km/h (1 Bft) 100,00 %
29.03.2021 19:44 18,8 C 17,2 C 13,9 C 42 % 1029,6 hPa 0,0 l/m 0 min 0 min 15 W/m 0,0 km/h (0 Bft) 100,00 %
29.03.2021 19:46 18,8 C 17,2 C 13,9 C 42 % 1029,6 hPa 0,0 l/m 0 min 0 min 14 W/m 3,2 km/h (1 Bft) 100,00 %
29.03.2021 19:48 18,7 C 17,2 C 13,9 C 42 % 1029,6 hPa 0,0 l/m 0 min 0 min 14 W/m 3,2 km/h (1 Bft) 95,74 %
29.03.2021 19:50 18,6 C 16,7 C 13,4 C 42 % 1029,6 hPa 0,0 l/m 0 min 0 min 12 W/m 3,2 km/h (1 Bft) 97,83 %
29.03.2021 19:52 18,5 C 16,7 C 13,9 C 42 % 1029,6 hPa 0,0 l/m 0 min 0 min 12 W/m 12,9 km/h (3 Bft) 97,92 %
29.03.2021 19:54 18,5 C 16,7 C 13,4 C 42 % 1029,6 hPa 0,0 l/m 0 min 0 min 11 W/m 3,2 km/h (1 Bft) 95,92 %
29.03.2021 19:56 18,4 C 16,7 C 13,4 C 42 % 1029,6 hPa 0,0 l/m 0 min 0 min 9 W/m 3,2 km/h (1 Bft) 95,56 %
29.03.2021 19:58 18,4 C 16,7 C 13,4 C 42 % 1029,6 hPa 0,0 l/m 0 min 0 min 7 W/m 6,4 km/h (2 Bft) 97,87 %
29.03.2021 20:00 18,3 C 16,7 C 13,4 C 42 % 1029,6 hPa 0,0 l/m 0 min 0 min 7 W/m 6,4 km/h (2 Bft) 97,87 %
29.03.2021 20:02 18,3 C 16,7 C 13,4 C 42 % 1029,6 hPa 0,0 l/m 0 min 0 min 5 W/m 6,4 km/h (2 Bft) 97,83 %
29.03.2021 20:04 18,2 C 16,7 C 13,4 C 42 % 1029,7 hPa 0,0 l/m 0 min 0 min 5 W/m 3,2 km/h (1 Bft) 97,87 %
29.03.2021 20:06 18,1 C 16,1 C 12,8 C 42 % 1029,7 hPa 0,0 l/m 0 min 0 min 2 W/m 3,2 km/h (1 Bft) 95,74 %
29.03.2021 20:08 18,0 C 16,1 C 12,8 C 43 % 1029,7 hPa 0,0 l/m 0 min 0 min 0 W/m 0,0 km/h (0 Bft) 97,87 %
29.03.2021 20:10 18,0 C 16,1 C 12,8 C 43 % 1029,7 hPa 0,0 l/m 0 min 0 min 0 W/m 3,2 km/h (1 Bft) 95,74 %
29.03.2021 20:12 18,0 C 16,1 C 12,3 C 43 % 1029,6 hPa 0,0 l/m 0 min 0 min 0 W/m 3,2 km/h (1 Bft) 97,87 %
29.03.2021 20:14 17,9 C 16,1 C 12,3 C 43 % 1029,7 hPa 0,0 l/m 0 min 0 min 0 W/m 3,2 km/h (1 Bft) 97,83 %
29.03.2021 20:16 17,8 C 15,6 C 12,3 C 44 % 1029,7 hPa 0,0 l/m 0 min 0 min 0 W/m 3,2 km/h (1 Bft) 97,87 %
29.03.2021 20:18 17,8 C 15,6 C 11,7 C 43 % 1029,7 hPa 0,0 l/m 0 min 0 min 0 W/m 6,4 km/h (2 Bft) 97,87 %
29.03.2021 20:20 17,7 C 15,6 C 11,7 C 43 % 1029,7 hPa 0,0 l/m 0 min 0 min 0 W/m 3,2 km/h (1 Bft) 95,92 %
29.03.2021 20:22 17,6 C 15,6 C 11,7 C 44 % 1029,7 hPa 0,0 l/m 0 min 0 min 0 W/m 3,2 km/h (1 Bft) 97,87 %
29.03.2021 20:24 17,5 C 15,6 C 11,7 C 43 % 1029,7 hPa 0,0 l/m 0 min 0 min 0 W/m 6,4 km/h (2 Bft) 97,87 %
29.03.2021 20:26 17,5 C 15,6 C 11,7 C 43 % 1029,7 hPa 0,0 l/m 0 min 0 min 0 W/m 6,4 km/h (2 Bft) 97,83 %
29.03.2021 20:28 17,4 C 15,6 C 11,7 C 44 % 1029,8 hPa 0,0 l/m 0 min 0 min 0 W/m 3,2 km/h (1 Bft) 95,74 %
29.03.2021 20:30 17,4 C 15,6 C 11,7 C 43 % 1029,7 hPa 0,0 l/m 0 min 0 min 0 W/m 3,2 km/h (1 Bft) 97,87 %
29.03.2021 20:32 17,3 C 15,6 C 11,7 C 44 % 1029,8 hPa 0,0 l/m 0 min 0 min 0 W/m 3,2 km/h (1 Bft) 95,74 %
29.03.2021 20:34 17,3 C 15,6 C 11,7 C 44 % 1029,9 hPa 0,0 l/m 0 min 0 min 0 W/m 3,2 km/h (1 Bft) 100,00 %
29.03.2021 20:36 17,2 C 15,0 C 11,1 C 44 % 1029,9 hPa 0,0 l/m 0 min 0 min 0 W/m 6,4 km/h (2 Bft) 97,87 %
29.03.2021 20:38 17,1 C 15,0 C 11,1 C 45 % 1029,9 hPa 0,0 l/m 0 min 0 min 0 W/m 6,4 km/h (2 Bft) 95,65 %
29.03.2021 20:40 17,1 C 15,0 C 11,1 C 45 % 1029,9 hPa 0,0 l/m 0 min 0 min 0 W/m 3,2 km/h (1 Bft) 97,87 %
29.03.2021 20:42 17,0 C 15,0 C 11,1 C 45 % 1030,0 hPa 0,0 l/m 0 min 0 min 0 W/m 9,7 km/h (2 Bft) 97,87 %
29.03.2021 20:44 17,0 C 15,0 C 11,1 C 45 % 1030,0 hPa 0,0 l/m 0 min 0 min 0 W/m 3,2 km/h (1 Bft) 97,87 %
29.03.2021 20:46 16,9 C 15,0 C 11,1 C 45 % 1030,0 hPa 0,0 l/m 0 min 0 min 0 W/m 6,4 km/h (2 Bft) 95,74 %
29.03.2021 20:48 16,9 C 15,0 C 11,1 C 45 % 1030,0 hPa 0,0 l/m 0 min 0 min 0 W/m 3,2 km/h (1 Bft) 97,87 %
29.03.2021 20:50 16,8 C 15,0 C 11,1 C 45 % 1030,1 hPa 0,0 l/m 0 min 0 min 0 W/m 3,2 km/h (1 Bft) 95,65 %
29.03.2021 20:52 16,8 C 15,0 C 10,6 C 45 % 1030,1 hPa 0,0 l/m 0 min 0 min 0 W/m 0,0 km/h (0 Bft) 97,87 %
29.03.2021 20:54 16,8 C 14,4 C 10,6 C 46 % 1030,1 hPa 0,0 l/m 0 min 0 min 0 W/m 0,0 km/h (0 Bft) 97,87 %
29.03.2021 20:56 16,7 C 14,4 C 10,6 C 46 % 1030,1 hPa 0,0 l/m 0 min 0 min 0 W/m 0,0 km/h (0 Bft) 97,87 %
29.03.2021 20:58 16,6 C 14,4 C 10,0 C 45 % 1030,1 hPa 0,0 l/m 0 min 0 min 0 W/m 0,0 km/h (0 Bft) 97,87 %
29.03.2021 21:00 16,6 C 13,9 C 10,0 C 45 % 1030,1 hPa 0,0 l/m 0 min 0 min 0 W/m 0,0 km/h (0 Bft) 95,74 %
29.03.2021 21:02 16,5 C 13,9 C 9,5 C 46 % 1030,1 hPa 0,0 l/m 0 min 0 min 0 W/m 0,0 km/h (0 Bft) 95,74 %
29.03.2021 21:04 16,5 C 13,9 C 9,5 C 46 % 1030,2 hPa 0,0 l/m 0 min 0 min 0 W/m 0,0 km/h (0 Bft) 95,74 %
29.03.2021 21:06 16,4 C 13,9 C 9,5 C 46 % 1030,2 hPa 0,0 l/m 0 min 0 min 0 W/m 0,0 km/h (0 Bft) 93,62 %
29.03.2021 21:08 16,3 C 13,9 C 9,5 C 46 % 1030,2 hPa 0,0 l/m 0 min 0 min 0 W/m 0,0 km/h (0 Bft) 97,87 %
29.03.2021 21:10 16,3 C 13,9 C 9,5 C 46 % 1030,2 hPa 0,0 l/m 0 min 0 min 0 W/m 3,2 km/h (1 Bft) 95,74 %
29.03.2021 21:12 16,1 C 13,9 C 9,5 C 46 % 1030,2 hPa 0,0 l/m 0 min 0 min 0 W/m 3,2 km/h (1 Bft) 93,48 %
29.03.2021 21:14 16,1 C 13,9 C 9,5 C 46 % 1030,2 hPa 0,0 l/m 0 min 0 min 0 W/m 3,2 km/h (1 Bft) 95,74 %
29.03.2021 21:16 16,0 C 13,9 C 9,5 C 47 % 1030,2 hPa 0,0 l/m 0 min 0 min 0 W/m 0,0 km/h (0 Bft) 93,75 %
29.03.2021 21:18 16,0 C 13,9 C 9,5 C 47 % 1030,3 hPa 0,0 l/m 0 min 0 min 0 W/m 0,0 km/h (0 Bft) 95,74 %
29.03.2021 21:20 15,9 C 13,9 C 9,5 C 48 % 1030,3 hPa 0,0 l/m 0 min 0 min 0 W/m 0,0 km/h (0 Bft) 93,75 %
29.03.2021 21:22 15,9 C 13,9 C 9,5 C 48 % 1030,3 hPa 0,0 l/m 0 min 0 min 0 W/m 3,2 km/h (1 Bft) 95,74 %
29.03.2021 21:24 15,8 C 13,9 C 10,0 C 48 % 1030,3 hPa 0,0 l/m 0 min 0 min 0 W/m 3,2 km/h (1 Bft) 94,29 %
29.03.2021 21:26 15,8 C 13,9 C 10,0 C 48 % 1030,3 hPa 0,0 l/m 0 min 0 min 0 W/m 3,2 km/h (1 Bft) 96,55 %
29.03.2021 21:28 15,7 C 14,4 C 10,6 C 48 % 1030,4 hPa 0,0 l/m 0 min 0 min 0 W/m 9,7 km/h (2 Bft) 95,74 %
29.03.2021 21:30 15,7 C 14,4 C 10,6 C 48 % 1030,4 hPa 0,0 l/m 0 min 0 min 0 W/m 3,2 km/h (1 Bft) 95,74 %
29.03.2021 21:32 15,7 C 14,4 C 10,6 C 48 % 1030,3 hPa 0,0 l/m 0 min 0 min 0 W/m 3,2 km/h (1 Bft) 94,29 %
29.03.2021 21:34 15,6 C 14,4 C 10,6 C 48 % 1030,4 hPa 0,0 l/m 0 min 0 min 0 W/m 3,2 km/h (1 Bft) 95,74 %
29.03.2021 21:36 15,6 C 14,4 C 10,6 C 48 % 1030,4 hPa 0,0 l/m 0 min 0 min 0 W/m 3,2 km/h (1 Bft) 95,74 %
29.03.2021 21:38 15,6 C 14,4 C 10,6 C 48 % 1030,4 hPa 0,0 l/m 0 min 0 min 0 W/m 6,4 km/h (2 Bft) 95,65 %
29.03.2021 21:40 15,6 C 14,4 C 10,6 C 48 % 1030,4 hPa 0,0 l/m 0 min 0 min 0 W/m 6,4 km/h (2 Bft) 97,87 %
29.03.2021 21:42 15,5 C 13,9 C 10,6 C 48 % 1030,3 hPa 0,0 l/m 0 min 0 min 0 W/m 3,2 km/h (1 Bft) 95,74 %
29.03.2021 21:44 15,5 C 13,9 C 10,6 C 49 % 1030,4 hPa 0,0 l/m 0 min 0 min 0 W/m 0,0 km/h (0 Bft) 95,74 %
29.03.2021 21:46 15,5 C 13,9 C 10,6 C 49 % 1030,3 hPa 0,0 l/m 0 min 0 min 0 W/m 3,2 km/h (1 Bft) 97,87 %
29.03.2021 21:48 15,5 C 13,9 C 10,6 C 49 % 1030,3 hPa 0,0 l/m 0 min 0 min 0 W/m 3,2 km/h (1 Bft) 95,74 %
29.03.2021 21:50 15,4 C 13,9 C 10,6 C 49 % 1030,3 hPa 0,0 l/m 0 min 0 min 0 W/m 6,4 km/h (2 Bft) 97,87 %
29.03.2021 21:52 15,4 C 13,9 C 10,6 C 49 % 1030,3 hPa 0,0 l/m 0 min 0 min 0 W/m 6,4 km/h (2 Bft) 97,83 %
29.03.2021 21:54 15,4 C 13,9 C 10,6 C 49 % 1030,4 hPa 0,0 l/m 0 min 0 min 0 W/m 6,4 km/h (2 Bft) 100,00 %
29.03.2021 21:56 15,3 C 13,9 C 10,6 C 49 % 1030,4 hPa 0,0 l/m 0 min 0 min 0 W/m 6,4 km/h (2 Bft) 97,56 %
29.03.2021 21:58 15,3 C 13,9 C 10,6 C 49 % 1030,4 hPa 0,0 l/m 0 min 0 min 0 W/m 6,4 km/h (2 Bft) 100,00 %
29.03.2021 22:00 15,3 C 13,9 C 10,6 C 49 % 1030,4 hPa 0,0 l/m 0 min 0 min 0 W/m 3,2 km/h (1 Bft) 96,55 %
29.03.2021 22:02 15,3 C 13,9 C 10,6 C 50 % 1030,4 hPa 0,0 l/m 0 min 0 min 0 W/m 6,4 km/h (2 Bft) 100,00 %
29.03.2021 22:04 15,2 C 13,9 C 10,6 C 50 % 1030,3 hPa 0,0 l/m 0 min 0 min 0 W/m 3,2 km/h (1 Bft) 100,00 %
29.03.2021 22:06 15,1 C 13,9 C 10,6 C 50 % 1030,4 hPa 0,0 l/m 0 min 0 min 0 W/m 3,2 km/h (1 Bft) 98,31 %
29.03.2021 22:08 15,1 C 13,9 C 10,6 C 50 % 1030,4 hPa 0,0 l/m 0 min 0 min 0 W/m 6,4 km/h (2 Bft) 100,00 %
29.03.2021 22:10 15,1 C 13,9 C 10,6 C 50 % 1030,4 hPa 0,0 l/m 0 min 0 min 0 W/m 6,4 km/h (2 Bft) 97,14 %
29.03.2021 22:12 15,0 C 13,9 C 10,6 C 50 % 1030,4 hPa 0,0 l/m 0 min 0 min 0 W/m 3,2 km/h (1 Bft) 100,00 %
29.03.2021 22:14 15,0 C 13,3 C 10,6 C 50 % 1030,4 hPa 0,0 l/m 0 min 0 min 0 W/m 3,2 km/h (1 Bft) 100,00 %
29.03.2021 22:16 15,0 C 13,3 C 10,0 C 50 % 1030,4 hPa 0,0 l/m 0 min 0 min 0 W/m 3,2 km/h (1 Bft) 97,87 %
29.03.2021 22:18 14,9 C 13,3 C 10,0 C 51 % 1030,4 hPa 0,0 l/m 0 min 0 min 0 W/m 3,2 km/h (1 Bft) 100,00 %
29.03.2021 22:20 14,9 C 13,3 C 10,0 C 51 % 1030,4 hPa 0,0 l/m 0 min 0 min 0 W/m 0,0 km/h (0 Bft) 97,87 %
29.03.2021 22:22 14,9 C 13,3 C 10,0 C 50 % 1030,4 hPa 0,0 l/m 0 min 0 min 0 W/m 3,2 km/h (1 Bft) 100,00 %
29.03.2021 22:24 14,8 C 13,3 C 9,5 C 51 % 1030,4 hPa 0,0 l/m 0 min 0 min 0 W/m 3,2 km/h (1 Bft) 100,00 %
29.03.2021 22:26 14,8 C 13,3 C 9,5 C 51 % 1030,4 hPa 0,0 l/m 0 min 0 min 0 W/m 3,2 km/h (1 Bft) 100,00 %
29.03.2021 22:28 14,8 C 13,3 C 9,5 C 51 % 1030,4 hPa 0,0 l/m 0 min 0 min 0 W/m 3,2 km/h (1 Bft) 100,00 %
29.03.2021 22:30 14,7 C 13,3 C 9,5 C 51 % 1030,4 hPa 0,0 l/m 0 min 0 min 0 W/m 3,2 km/h (1 Bft) 100,00 %
29.03.2021 22:32 14,7 C 13,3 C 9,5 C 51 % 1030,4 hPa 0,0 l/m 0 min 0 min 0 W/m 3,2 km/h (1 Bft) 100,00 %
29.03.2021 22:34 14,6 C 13,3 C 9,5 C 51 % 1030,4 hPa 0,0 l/m 0 min 0 min 0 W/m 0,0 km/h (0 Bft) 100,00 %
29.03.2021 22:36 14,6 C 13,3 C 9,5 C 51 % 1030,4 hPa 0,0 l/m 0 min 0 min 0 W/m 3,2 km/h (1 Bft) 100,00 %
29.03.2021 22:38 14,6 C 12,8 C 9,5 C 51 % 1030,4 hPa 0,0 l/m 0 min 0 min 0 W/m 0,0 km/h (0 Bft) 100,00 %
29.03.2021 22:40 14,5 C 12,8 C 8,9 C 51 % 1030,4 hPa 0,0 l/m 0 min 0 min 0 W/m 3,2 km/h (1 Bft) 100,00 %
29.03.2021 22:42 14,5 C 12,8 C 8,9 C 51 % 1030,4 hPa 0,0 l/m 0 min 0 min 0 W/m 0,0 km/h (0 Bft) 100,00 %
29.03.2021 22:44 14,5 C 12,8 C 8,9 C 51 % 1030,4 hPa 0,0 l/m 0 min 0 min 0 W/m 3,2 km/h (1 Bft) 100,00 %
29.03.2021 22:46 14,4 C 12,8 C 8,4 C 52 % 1030,4 hPa 0,0 l/m 0 min 0 min 0 W/m 0,0 km/h (0 Bft) 100,00 %
29.03.2021 22:48 14,4 C 12,2 C 8,4 C 51 % 1030,4 hPa 0,0 l/m 0 min 0 min 0 W/m 0,0 km/h (0 Bft) 100,00 %
29.03.2021 22:50 14,3 C 12,2 C 8,4 C 51 % 1030,4 hPa 0,0 l/m 0 min 0 min 0 W/m 0,0 km/h (0 Bft) 95,65 %
29.03.2021 22:52 14,3 C 12,2 C 7,8 C 52 % 1030,5 hPa 0,0 l/m 0 min 0 min 0 W/m 3,2 km/h (1 Bft) 95,74 %
29.03.2021 22:54 14,2 C 11,7 C 7,8 C 53 % 1030,5 hPa 0,0 l/m 0 min 0 min 0 W/m 0,0 km/h (0 Bft) 97,87 %
29.03.2021 22:56 14,2 C 11,7 C 7,8 C 53 % 1030,5 hPa 0,0 l/m 0 min 0 min 0 W/m 0,0 km/h (0 Bft) 97,87 %
29.03.2021 22:58 14,2 C 11,1 C 7,3 C 54 % 1030,5 hPa 0,0 l/m 0 min 0 min 0 W/m 0,0 km/h (0 Bft) 97,87 %
29.03.2021 23:00 14,2 C 11,1 C 7,3 C 55 % 1030,5 hPa 0,0 l/m 0 min 0 min 0 W/m 0,0 km/h (0 Bft) 97,83 %
29.03.2021 23:02 14,2 C 11,1 C 7,3 C 55 % 1030,5 hPa 0,0 l/m 0 min 0 min 0 W/m 0,0 km/h (0 Bft) 96,49 %
29.03.2021 23:04 14,1 C 10,6 C 7,3 C 56 % 1030,5 hPa 0,0 l/m 0 min 0 min 0 W/m 0,0 km/h (0 Bft) 97,87 %
29.03.2021 23:06 14,0 C 10,6 C 7,3 C 56 % 1030,5 hPa 0,0 l/m 0 min 0 min 0 W/m 0,0 km/h (0 Bft) 95,74 %
29.03.2021 23:08 13,9 C 10,6 C 6,7 C 56 % 1030,5 hPa 0,0 l/m 0 min 0 min 0 W/m 0,0 km/h (0 Bft) 97,87 %
29.03.2021 23:10 13,8 C 10,6 C 6,7 C 56 % 1030,6 hPa 0,0 l/m 0 min 0 min 0 W/m 0,0 km/h (0 Bft) 93,62 %
29.03.2021 23:12 13,6 C 10,6 C 6,7 C 56 % 1030,5 hPa 0,0 l/m 0 min 0 min 0 W/m 0,0 km/h (0 Bft) 97,87 %
29.03.2021 23:14 13,5 C 10,0 C 6,7 C 57 % 1030,5 hPa 0,0 l/m 0 min 0 min 0 W/m 0,0 km/h (0 Bft) 95,74 %
29.03.2021 23:16 13,4 C 10,0 C 6,7 C 58 % 1030,6 hPa 0,0 l/m 0 min 0 min 0 W/m 0,0 km/h (0 Bft) 95,74 %
29.03.2021 23:18 13,3 C 10,0 C 6,7 C 58 % 1030,6 hPa 0,0 l/m 0 min 0 min 0 W/m 0,0 km/h (0 Bft) 97,22 %
29.03.2021 23:20 13,2 C 10,0 C 6,7 C 60 % 1030,6 hPa 0,0 l/m 0 min 0 min 0 W/m 0,0 km/h (0 Bft) 97,87 %
29.03.2021 23:22 13,1 C 10,0 C 6,7 C 60 % 1030,6 hPa 0,0 l/m 0 min 0 min 0 W/m 0,0 km/h (0 Bft) 93,62 %
29.03.2021 23:24 13,0 C 10,0 C 6,1 C 61 % 1030,6 hPa 0,0 l/m 0 min 0 min 0 W/m 0,0 km/h (0 Bft) 93,48 %
29.03.2021 23:26 12,9 C 9,4 C 6,1 C 61 % 1030,6 hPa 0,0 l/m 0 min 0 min 0 W/m 0,0 km/h (0 Bft) 95,74 %
29.03.2021 23:28 12,8 C 9,4 C 6,1 C 61 % 1030,7 hPa 0,0 l/m 0 min 0 min 0 W/m 0,0 km/h (0 Bft) 95,74 %
29.03.2021 23:30 12,7 C 9,4 C 6,1 C 62 % 1030,7 hPa 0,0 l/m 0 min 0 min 0 W/m 0,0 km/h (0 Bft) 93,62 %
29.03.2021 23:32 12,6 C 9,4 C 6,1 C 62 % 1030,7 hPa 0,0 l/m 0 min 0 min 0 W/m 0,0 km/h (0 Bft) 95,74 %
29.03.2021 23:34 12,5 C 9,4 C 6,1 C 61 % 1030,7 hPa 0,0 l/m 0 min 0 min 0 W/m 0,0 km/h (0 Bft) 95,74 %
29.03.2021 23:36 12,4 C 9,4 C 6,1 C 61 % 1030,7 hPa 0,0 l/m 0 min 0 min 0 W/m 0,0 km/h (0 Bft) 93,48 %
29.03.2021 23:38 12,3 C 9,4 C 6,1 C 60 % 1030,7 hPa 0,0 l/m 0 min 0 min 0 W/m 0,0 km/h (0 Bft) 95,74 %
29.03.2021 23:40 12,1 C 9,4 C 6,1 C 60 % 1030,8 hPa 0,0 l/m 0 min 0 min 0 W/m 0,0 km/h (0 Bft) 95,74 %
29.03.2021 23:42 12,0 C 9,4 C 6,1 C 60 % 1030,8 hPa 0,0 l/m 0 min 0 min 0 W/m 0,0 km/h (0 Bft) 91,49 %
29.03.2021 23:44 11,9 C 9,4 C 6,1 C 61 % 1030,8 hPa 0,0 l/m 0 min 0 min 0 W/m 0,0 km/h (0 Bft) 95,74 %
29.03.2021 23:46 11,8 C 9,4 C 6,1 C 61 % 1030,8 hPa 0,0 l/m 0 min 0 min 0 W/m 0,0 km/h (0 Bft) 95,74 %
29.03.2021 23:48 11,6 C 9,4 C 6,1 C 62 % 1030,8 hPa 0,0 l/m 0 min 0 min 0 W/m 0,0 km/h (0 Bft) 95,65 %
29.03.2021 23:50 11,6 C 8,9 C 6,1 C 63 % 1030,8 hPa 0,0 l/m 0 min 0 min 0 W/m 0,0 km/h (0 Bft) 95,74 %
29.03.2021 23:52 11,5 C 8,9 C 5,6 C 63 % 1030,8 hPa 0,0 l/m 0 min 0 min 0 W/m 0,0 km/h (0 Bft) 97,87 %
29.03.2021 23:54 11,5 C 8,9 C 6,1 C 64 % 1030,8 hPa 0,0 l/m 0 min 0 min 0 W/m 0,0 km/h (0 Bft) 100,00 %
29.03.2021 23:56 11,4 C 8,9 C 6,1 C 64 % 1030,9 hPa 0,0 l/m 0 min 0 min 0 W/m 0,0 km/h (0 Bft) 97,87 %
29.03.2021 23:58 11,3 C 8,9 C 6,1 C 63 % 1030,8 hPa 0,0 l/m 0 min 0 min 0 W/m 0,0 km/h (0 Bft) 100,00 %
_ Min-Zeit 07:24 07:22 07:06 17:56 03:36 - - - - 00:00 07:20
Minimum _ 7,4 C 6,1 C 3,9 C 34 % 1027,8 hPa - - - - 0,0 km/h (0 Bft) 75,93 %
_ Max-Zeit 16:24 16:06 12:38 07:36 23:56 00:00 09:38 00:00 13:46 16:56 00:02
Maximum _ 22,1 C 29,4 C 28,4 C 82 % 1030,9 hPa 0,0 l/m 4 min 0 min 755 W/m 41,8 km/h
S-SW (6 Bft)
100,00 %
Durchschnitt _ 14,2 C 15,2 C 11,7 C 60 % 1029,1 hPa #0,0 l/m #9:44 h #0 min. 410 W/m 10,3 km/h (2 Bft) 97,21 %
© 2021 W. Hausmann